
<gpx xmlns="http://www.topografix.com/GPX/1/1" xmlns:gpxx="http://www.garmin.com/xmlschemas/GpxExtensions/v3" xmlns:wptx1="http://www.garmin.com/xmlschemas/WaypointExtension/v1" xmlns:xsi="http://www.w3.org/2001/XMLSchema-instance" version="1.1" creator="Adze - https://getadze.com/" xsi:schemaLocation="http://www.topografix.com/GPX/1/1 http://www.topografix.com/GPX/1/1/gpx.xsd http://www.garmin.com/xmlschemas/GpxExtensions/v3 http://www8.garmin.com/xmlschemas/GpxExtensionsv3.xsd http://www.garmin.com/xmlschemas/WaypointExtension/v1 http://www8.garmin.com/xmlschemas/WaypointExtensionv1.xsd">
    <metadata>
        <name>Untitled Document</name>
        <link href="http://www.garmin.com"></link>
        <time>2018-03-06T04:50:44.946Z</time>
    </metadata>
    <wpt lon="101.074095" lat="14.293796">
        <ele>-53.000000</ele>
        <name>Banna Resort</name>
        <cmt>16-DEC-06 12:55:30</cmt>
        <desc>16-DEC-06 12:55:30</desc>
        <sym>Block, Blue</sym>
        <type>user</type>
        <extensions>
            <gpxx:WaypointExtension>
                <gpxx:DisplayMode>SymbolOnly</gpxx:DisplayMode>
            </gpxx:WaypointExtension>
            <wptx1:WaypointExtension>
                <wptx1:DisplayMode>SymbolOnly</wptx1:DisplayMode>
            </wptx1:WaypointExtension>
        </extensions>
    </wpt>
    <trk>
        <name>December 2006 - Sunday</name>
        <extensions>
            <gpxx:TrackExtension>
                <gpxx:DisplayColor>DarkGray</gpxx:DisplayColor>
            </gpxx:TrackExtension>
        </extensions>
        <trkseg>
            <trkpt lon="101.075044" lat="14.293502">
                <ele>9.750610</ele>
                <time>2006-12-17T03:29:14Z</time>
            </trkpt>
            <trkpt lon="101.075052" lat="14.293505">
                <ele>9.750610</ele>
                <time>2006-12-17T03:29:15Z</time>
            </trkpt>
            <trkpt lon="101.075416" lat="14.293524">
                <ele>7.827881</ele>
                <time>2006-12-17T03:29:30Z</time>
            </trkpt>
            <trkpt lon="101.075501" lat="14.293582">
                <ele>7.827881</ele>
                <time>2006-12-17T03:29:33Z</time>
            </trkpt>
            <trkpt lon="101.075578" lat="14.293952">
                <ele>6.866455</ele>
                <time>2006-12-17T03:29:40Z</time>
            </trkpt>
            <trkpt lon="101.075702" lat="14.294090">
                <ele>7.347168</ele>
                <time>2006-12-17T03:29:44Z</time>
            </trkpt>
            <trkpt lon="101.076692" lat="14.294085">
                <ele>6.385864</ele>
                <time>2006-12-17T03:30:04Z</time>
            </trkpt>
            <trkpt lon="101.077671" lat="14.294110">
                <ele>5.905273</ele>
                <time>2006-12-17T03:30:25Z</time>
            </trkpt>
            <trkpt lon="101.078372" lat="14.294102">
                <ele>5.905273</ele>
                <time>2006-12-17T03:30:44Z</time>
            </trkpt>
            <trkpt lon="101.078343" lat="14.293772">
                <ele>5.905273</ele>
                <time>2006-12-17T03:30:53Z</time>
            </trkpt>
            <trkpt lon="101.078192" lat="14.292847">
                <ele>7.347168</ele>
                <time>2006-12-17T03:31:11Z</time>
            </trkpt>
            <trkpt lon="101.078020" lat="14.291525">
                <ele>8.789185</ele>
                <time>2006-12-17T03:31:37Z</time>
            </trkpt>
            <trkpt lon="101.077973" lat="14.291310">
                <ele>9.269897</ele>
                <time>2006-12-17T03:31:42Z</time>
            </trkpt>
            <trkpt lon="101.077844" lat="14.291287">
                <ele>9.269897</ele>
                <time>2006-12-17T03:31:46Z</time>
            </trkpt>
            <trkpt lon="101.077911" lat="14.291531">
                <ele>7.827881</ele>
                <time>2006-12-17T03:31:58Z</time>
            </trkpt>
            <trkpt lon="101.077760" lat="14.291541">
                <ele>8.308594</ele>
                <time>2006-12-17T03:32:00Z</time>
            </trkpt>
            <trkpt lon="101.076512" lat="14.291624">
                <ele>5.905273</ele>
                <time>2006-12-17T03:32:19Z</time>
            </trkpt>
            <trkpt lon="101.076451" lat="14.291619">
                <ele>5.905273</ele>
                <time>2006-12-17T03:32:20Z</time>
            </trkpt>
            <trkpt lon="101.076198" lat="14.291416">
                <ele>6.385864</ele>
                <time>2006-12-17T03:32:26Z</time>
            </trkpt>
            <trkpt lon="101.075712" lat="14.290436">
                <ele>8.308594</ele>
                <time>2006-12-17T03:32:46Z</time>
            </trkpt>
            <trkpt lon="101.075685" lat="14.290035">
                <ele>8.308594</ele>
                <time>2006-12-17T03:32:54Z</time>
            </trkpt>
            <trkpt lon="101.075884" lat="14.289572">
                <ele>10.711792</ele>
                <time>2006-12-17T03:33:05Z</time>
            </trkpt>
            <trkpt lon="101.075754" lat="14.289522">
                <ele>9.269897</ele>
                <time>2006-12-17T03:33:10Z</time>
            </trkpt>
            <trkpt lon="101.074843" lat="14.289657">
                <ele>8.308594</ele>
                <time>2006-12-17T03:33:29Z</time>
            </trkpt>
            <trkpt lon="101.073905" lat="14.289801">
                <ele>7.827881</ele>
                <time>2006-12-17T03:33:48Z</time>
            </trkpt>
            <trkpt lon="101.073647" lat="14.289775">
                <ele>7.827881</ele>
                <time>2006-12-17T03:33:53Z</time>
            </trkpt>
            <trkpt lon="101.073450" lat="14.289799">
                <ele>8.308594</ele>
                <time>2006-12-17T03:33:58Z</time>
            </trkpt>
            <trkpt lon="101.073224" lat="14.289617">
                <ele>9.750610</ele>
                <time>2006-12-17T03:34:05Z</time>
            </trkpt>
            <trkpt lon="101.073043" lat="14.289558">
                <ele>10.231201</ele>
                <time>2006-12-17T03:34:09Z</time>
            </trkpt>
            <trkpt lon="101.072997" lat="14.289388">
                <ele>10.711792</ele>
                <time>2006-12-17T03:34:13Z</time>
            </trkpt>
            <trkpt lon="101.072857" lat="14.289202">
                <ele>10.231201</ele>
                <time>2006-12-17T03:34:19Z</time>
            </trkpt>
            <trkpt lon="101.071667" lat="14.289360">
                <ele>9.269897</ele>
                <time>2006-12-17T03:34:42Z</time>
            </trkpt>
            <trkpt lon="101.071422" lat="14.289148">
                <ele>9.750610</ele>
                <time>2006-12-17T03:34:49Z</time>
            </trkpt>
            <trkpt lon="101.071105" lat="14.288512">
                <ele>10.231201</ele>
                <time>2006-12-17T03:35:03Z</time>
            </trkpt>
            <trkpt lon="101.070847" lat="14.288186">
                <ele>9.269897</ele>
                <time>2006-12-17T03:35:10Z</time>
            </trkpt>
            <trkpt lon="101.070828" lat="14.288076">
                <ele>9.269897</ele>
                <time>2006-12-17T03:35:12Z</time>
            </trkpt>
            <trkpt lon="101.070864" lat="14.287913">
                <ele>9.269897</ele>
                <time>2006-12-17T03:35:15Z</time>
            </trkpt>
            <trkpt lon="101.071102" lat="14.287332">
                <ele>8.308594</ele>
                <time>2006-12-17T03:35:27Z</time>
            </trkpt>
            <trkpt lon="101.070957" lat="14.287140">
                <ele>9.269897</ele>
                <time>2006-12-17T03:35:32Z</time>
            </trkpt>
            <trkpt lon="101.070931" lat="14.286623">
                <ele>8.308594</ele>
                <time>2006-12-17T03:35:42Z</time>
            </trkpt>
            <trkpt lon="101.070965" lat="14.286385">
                <ele>7.827881</ele>
                <time>2006-12-17T03:35:48Z</time>
            </trkpt>
            <trkpt lon="101.070962" lat="14.286350">
                <ele>6.866455</ele>
                <time>2006-12-17T03:35:50Z</time>
            </trkpt>
            <trkpt lon="101.070876" lat="14.286315">
                <ele>7.347168</ele>
                <time>2006-12-17T03:35:54Z</time>
            </trkpt>
            <trkpt lon="101.070800" lat="14.286322">
                <ele>6.866455</ele>
                <time>2006-12-17T03:35:56Z</time>
            </trkpt>
            <trkpt lon="101.069877" lat="14.286525">
                <ele>5.424561</ele>
                <time>2006-12-17T03:36:13Z</time>
            </trkpt>
            <trkpt lon="101.068602" lat="14.286754">
                <ele>6.866455</ele>
                <time>2006-12-17T03:36:33Z</time>
            </trkpt>
            <trkpt lon="101.067472" lat="14.286940">
                <ele>5.424561</ele>
                <time>2006-12-17T03:36:52Z</time>
            </trkpt>
            <trkpt lon="101.067342" lat="14.286968">
                <ele>5.905273</ele>
                <time>2006-12-17T03:36:55Z</time>
            </trkpt>
            <trkpt lon="101.067321" lat="14.287140">
                <ele>5.905273</ele>
                <time>2006-12-17T03:37:00Z</time>
            </trkpt>
            <trkpt lon="101.067341" lat="14.287351">
                <ele>5.424561</ele>
                <time>2006-12-17T03:37:05Z</time>
            </trkpt>
            <trkpt lon="101.067294" lat="14.287890">
                <ele>5.905273</ele>
                <time>2006-12-17T03:37:17Z</time>
            </trkpt>
            <trkpt lon="101.067112" lat="14.287919">
                <ele>4.943848</ele>
                <time>2006-12-17T03:37:22Z</time>
            </trkpt>
            <trkpt lon="101.066896" lat="14.287879">
                <ele>4.943848</ele>
                <time>2006-12-17T03:37:26Z</time>
            </trkpt>
            <trkpt lon="101.065793" lat="14.287966">
                <ele>3.501953</ele>
                <time>2006-12-17T03:37:45Z</time>
            </trkpt>
            <trkpt lon="101.065612" lat="14.288005">
                <ele>3.501953</ele>
                <time>2006-12-17T03:37:48Z</time>
            </trkpt>
            <trkpt lon="101.065395" lat="14.287794">
                <ele>3.982666</ele>
                <time>2006-12-17T03:37:55Z</time>
            </trkpt>
            <trkpt lon="101.065136" lat="14.287741">
                <ele>3.982666</ele>
                <time>2006-12-17T03:38:00Z</time>
            </trkpt>
            <trkpt lon="101.064247" lat="14.287650">
                <ele>3.501953</ele>
                <time>2006-12-17T03:38:15Z</time>
            </trkpt>
            <trkpt lon="101.063966" lat="14.287700">
                <ele>3.982666</ele>
                <time>2006-12-17T03:38:20Z</time>
            </trkpt>
            <trkpt lon="101.063033" lat="14.287888">
                <ele>3.021240</ele>
                <time>2006-12-17T03:38:36Z</time>
            </trkpt>
            <trkpt lon="101.062132" lat="14.288018">
                <ele>2.540649</ele>
                <time>2006-12-17T03:38:51Z</time>
            </trkpt>
            <trkpt lon="101.061253" lat="14.288405">
                <ele>2.540649</ele>
                <time>2006-12-17T03:39:07Z</time>
            </trkpt>
            <trkpt lon="101.059857" lat="14.289001">
                <ele>3.021240</ele>
                <time>2006-12-17T03:39:32Z</time>
            </trkpt>
            <trkpt lon="101.059243" lat="14.289215">
                <ele>2.060059</ele>
                <time>2006-12-17T03:39:47Z</time>
            </trkpt>
            <trkpt lon="101.058826" lat="14.289235">
                <ele>1.579346</ele>
                <time>2006-12-17T03:39:59Z</time>
            </trkpt>
            <trkpt lon="101.058668" lat="14.289327">
                <ele>1.579346</ele>
                <time>2006-12-17T03:40:05Z</time>
            </trkpt>
            <trkpt lon="101.058580" lat="14.289232">
                <ele>1.579346</ele>
                <time>2006-12-17T03:40:09Z</time>
            </trkpt>
            <trkpt lon="101.058425" lat="14.288948">
                <ele>2.540649</ele>
                <time>2006-12-17T03:40:16Z</time>
            </trkpt>
            <trkpt lon="101.058201" lat="14.288917">
                <ele>1.579346</ele>
                <time>2006-12-17T03:40:22Z</time>
            </trkpt>
            <trkpt lon="101.057372" lat="14.289156">
                <ele>1.098633</ele>
                <time>2006-12-17T03:40:39Z</time>
            </trkpt>
            <trkpt lon="101.057178" lat="14.289176">
                <ele>1.098633</ele>
                <time>2006-12-17T03:40:43Z</time>
            </trkpt>
            <trkpt lon="101.057097" lat="14.289196">
                <ele>1.098633</ele>
                <time>2006-12-17T03:40:45Z</time>
            </trkpt>
            <trkpt lon="101.056949" lat="14.289030">
                <ele>1.579346</ele>
                <time>2006-12-17T03:40:51Z</time>
            </trkpt>
            <trkpt lon="101.056682" lat="14.288973">
                <ele>2.060059</ele>
                <time>2006-12-17T03:41:01Z</time>
            </trkpt>
            <trkpt lon="101.056659" lat="14.288986">
                <ele>2.060059</ele>
                <time>2006-12-17T03:41:02Z</time>
            </trkpt>
            <trkpt lon="101.056436" lat="14.289078">
                <ele>2.060059</ele>
                <time>2006-12-17T03:41:13Z</time>
            </trkpt>
            <trkpt lon="101.055977" lat="14.289114">
                <ele>1.579346</ele>
                <time>2006-12-17T03:41:26Z</time>
            </trkpt>
            <trkpt lon="101.055223" lat="14.289180">
                <ele>1.579346</ele>
                <time>2006-12-17T03:41:44Z</time>
            </trkpt>
            <trkpt lon="101.054769" lat="14.289256">
                <ele>1.098633</ele>
                <time>2006-12-17T03:41:56Z</time>
            </trkpt>
            <trkpt lon="101.054251" lat="14.289476">
                <ele>2.540649</ele>
                <time>2006-12-17T03:42:13Z</time>
            </trkpt>
            <trkpt lon="101.053808" lat="14.289673">
                <ele>3.021240</ele>
                <time>2006-12-17T03:42:26Z</time>
            </trkpt>
            <trkpt lon="101.053909" lat="14.289980">
                <ele>2.540649</ele>
                <time>2006-12-17T03:42:36Z</time>
            </trkpt>
            <trkpt lon="101.054068" lat="14.290337">
                <ele>1.579346</ele>
                <time>2006-12-17T03:42:45Z</time>
            </trkpt>
            <trkpt lon="101.054324" lat="14.291048">
                <ele>1.579346</ele>
                <time>2006-12-17T03:43:02Z</time>
            </trkpt>
            <trkpt lon="101.054629" lat="14.292149">
                <ele>2.060059</ele>
                <time>2006-12-17T03:43:27Z</time>
            </trkpt>
            <trkpt lon="101.055175" lat="14.292299">
                <ele>3.021240</ele>
                <time>2006-12-17T03:43:40Z</time>
            </trkpt>
            <trkpt lon="101.055512" lat="14.292358">
                <ele>3.501953</ele>
                <time>2006-12-17T03:43:47Z</time>
            </trkpt>
            <trkpt lon="101.055566" lat="14.292517">
                <ele>3.021240</ele>
                <time>2006-12-17T03:43:51Z</time>
            </trkpt>
            <trkpt lon="101.055727" lat="14.293419">
                <ele>2.540649</ele>
                <time>2006-12-17T03:44:10Z</time>
            </trkpt>
            <trkpt lon="101.055940" lat="14.294258">
                <ele>2.060059</ele>
                <time>2006-12-17T03:44:28Z</time>
            </trkpt>
            <trkpt lon="101.055610" lat="14.294338">
                <ele>2.060059</ele>
                <time>2006-12-17T03:44:37Z</time>
            </trkpt>
            <trkpt lon="101.054747" lat="14.294521">
                <ele>1.579346</ele>
                <time>2006-12-17T03:44:55Z</time>
            </trkpt>
            <trkpt lon="101.053552" lat="14.294581">
                <ele>2.060059</ele>
                <time>2006-12-17T03:45:18Z</time>
            </trkpt>
            <trkpt lon="101.052901" lat="14.294434">
                <ele>1.579346</ele>
                <time>2006-12-17T03:45:30Z</time>
            </trkpt>
            <trkpt lon="101.051759" lat="14.294521">
                <ele>1.579346</ele>
                <time>2006-12-17T03:45:50Z</time>
            </trkpt>
            <trkpt lon="101.050469" lat="14.294858">
                <ele>1.579346</ele>
                <time>2006-12-17T03:46:13Z</time>
            </trkpt>
            <trkpt lon="101.049899" lat="14.295048">
                <ele>1.098633</ele>
                <time>2006-12-17T03:46:25Z</time>
            </trkpt>
            <trkpt lon="101.049940" lat="14.295400">
                <ele>1.098633</ele>
                <time>2006-12-17T03:46:35Z</time>
            </trkpt>
            <trkpt lon="101.050014" lat="14.296140">
                <ele>0.618042</ele>
                <time>2006-12-17T03:46:50Z</time>
            </trkpt>
            <trkpt lon="101.050096" lat="14.296968">
                <ele>1.098633</ele>
                <time>2006-12-17T03:47:07Z</time>
            </trkpt>
            <trkpt lon="101.050175" lat="14.297950">
                <ele>1.579346</ele>
                <time>2006-12-17T03:47:26Z</time>
            </trkpt>
            <trkpt lon="101.050355" lat="14.299138">
                <ele>1.579346</ele>
                <time>2006-12-17T03:47:48Z</time>
            </trkpt>
            <trkpt lon="101.050667" lat="14.300043">
                <ele>2.540649</ele>
                <time>2006-12-17T03:48:06Z</time>
            </trkpt>
            <trkpt lon="101.051003" lat="14.301008">
                <ele>3.021240</ele>
                <time>2006-12-17T03:48:25Z</time>
            </trkpt>
            <trkpt lon="101.051280" lat="14.302279">
                <ele>3.982666</ele>
                <time>2006-12-17T03:48:49Z</time>
            </trkpt>
            <trkpt lon="101.051458" lat="14.303547">
                <ele>1.579346</ele>
                <time>2006-12-17T03:49:12Z</time>
            </trkpt>
            <trkpt lon="101.051696" lat="14.304806">
                <ele>1.579346</ele>
                <time>2006-12-17T03:49:36Z</time>
            </trkpt>
            <trkpt lon="101.051274" lat="14.304895">
                <ele>2.540649</ele>
                <time>2006-12-17T03:49:48Z</time>
            </trkpt>
            <trkpt lon="101.051048" lat="14.304930">
                <ele>3.021240</ele>
                <time>2006-12-17T03:49:53Z</time>
            </trkpt>
            <trkpt lon="101.050120" lat="14.305224">
                <ele>2.060059</ele>
                <time>2006-12-17T03:50:13Z</time>
            </trkpt>
            <trkpt lon="101.049758" lat="14.305266">
                <ele>2.540649</ele>
                <time>2006-12-17T03:50:20Z</time>
            </trkpt>
            <trkpt lon="101.049621" lat="14.305395">
                <ele>3.021240</ele>
                <time>2006-12-17T03:50:25Z</time>
            </trkpt>
            <trkpt lon="101.049510" lat="14.306348">
                <ele>3.501953</ele>
                <time>2006-12-17T03:50:45Z</time>
            </trkpt>
            <trkpt lon="101.049489" lat="14.306445">
                <ele>3.501953</ele>
                <time>2006-12-17T03:50:47Z</time>
            </trkpt>
            <trkpt lon="101.049128" lat="14.307407">
                <ele>3.982666</ele>
                <time>2006-12-17T03:51:07Z</time>
            </trkpt>
            <trkpt lon="101.049070" lat="14.307698">
                <ele>2.540649</ele>
                <time>2006-12-17T03:51:19Z</time>
            </trkpt>
            <trkpt lon="101.049048" lat="14.308000">
                <ele>2.540649</ele>
                <time>2006-12-17T03:51:24Z</time>
            </trkpt>
            <trkpt lon="101.049179" lat="14.308296">
                <ele>3.021240</ele>
                <time>2006-12-17T03:51:30Z</time>
            </trkpt>
            <trkpt lon="101.050124" lat="14.308788">
                <ele>4.463257</ele>
                <time>2006-12-17T03:51:49Z</time>
            </trkpt>
            <trkpt lon="101.050317" lat="14.308872">
                <ele>4.463257</ele>
                <time>2006-12-17T03:51:53Z</time>
            </trkpt>
            <trkpt lon="101.050627" lat="14.308889">
                <ele>3.501953</ele>
                <time>2006-12-17T03:52:00Z</time>
            </trkpt>
            <trkpt lon="101.050907" lat="14.308983">
                <ele>4.463257</ele>
                <time>2006-12-17T03:52:07Z</time>
            </trkpt>
            <trkpt lon="101.051207" lat="14.309127">
                <ele>4.943848</ele>
                <time>2006-12-17T03:52:16Z</time>
            </trkpt>
            <trkpt lon="101.051590" lat="14.309294">
                <ele>3.982666</ele>
                <time>2006-12-17T03:52:26Z</time>
            </trkpt>
            <trkpt lon="101.051675" lat="14.309320">
                <ele>3.982666</ele>
                <time>2006-12-17T03:52:28Z</time>
            </trkpt>
            <trkpt lon="101.051881" lat="14.309398">
                <ele>3.982666</ele>
                <time>2006-12-17T03:52:33Z</time>
            </trkpt>
            <trkpt lon="101.051999" lat="14.309460">
                <ele>3.982666</ele>
                <time>2006-12-17T03:52:36Z</time>
            </trkpt>
            <trkpt lon="101.052020" lat="14.309654">
                <ele>4.463257</ele>
                <time>2006-12-17T03:52:42Z</time>
            </trkpt>
            <trkpt lon="101.051768" lat="14.310313">
                <ele>3.982666</ele>
                <time>2006-12-17T03:53:00Z</time>
            </trkpt>
            <trkpt lon="101.051767" lat="14.310393">
                <ele>3.982666</ele>
                <time>2006-12-17T03:53:02Z</time>
            </trkpt>
            <trkpt lon="101.051739" lat="14.310525">
                <ele>4.463257</ele>
                <time>2006-12-17T03:53:07Z</time>
            </trkpt>
            <trkpt lon="101.051992" lat="14.310808">
                <ele>3.982666</ele>
                <time>2006-12-17T03:53:21Z</time>
            </trkpt>
            <trkpt lon="101.052294" lat="14.311013">
                <ele>3.982666</ele>
                <time>2006-12-17T03:53:33Z</time>
            </trkpt>
            <trkpt lon="101.052505" lat="14.311369">
                <ele>3.021240</ele>
                <time>2006-12-17T03:53:47Z</time>
            </trkpt>
            <trkpt lon="101.052583" lat="14.311554">
                <ele>3.021240</ele>
                <time>2006-12-17T03:53:59Z</time>
            </trkpt>
            <trkpt lon="101.052589" lat="14.311690">
                <ele>3.021240</ele>
                <time>2006-12-17T03:54:15Z</time>
            </trkpt>
            <trkpt lon="101.052657" lat="14.311877">
                <ele>3.982666</ele>
                <time>2006-12-17T03:54:34Z</time>
            </trkpt>
            <trkpt lon="101.052729" lat="14.312005">
                <ele>3.982666</ele>
                <time>2006-12-17T03:54:49Z</time>
            </trkpt>
            <trkpt lon="101.052806" lat="14.312176">
                <ele>3.501953</ele>
                <time>2006-12-17T03:55:08Z</time>
            </trkpt>
            <trkpt lon="101.052897" lat="14.312435">
                <ele>4.463257</ele>
                <time>2006-12-17T03:55:32Z</time>
            </trkpt>
            <trkpt lon="101.053030" lat="14.312518">
                <ele>5.424561</ele>
                <time>2006-12-17T03:55:49Z</time>
            </trkpt>
            <trkpt lon="101.053122" lat="14.312587">
                <ele>5.905273</ele>
                <time>2006-12-17T03:56:03Z</time>
            </trkpt>
            <trkpt lon="101.053171" lat="14.312760">
                <ele>6.385864</ele>
                <time>2006-12-17T03:56:22Z</time>
            </trkpt>
            <trkpt lon="101.053128" lat="14.312840">
                <ele>5.424561</ele>
                <time>2006-12-17T03:56:34Z</time>
            </trkpt>
            <trkpt lon="101.052979" lat="14.312969">
                <ele>4.943848</ele>
                <time>2006-12-17T03:56:52Z</time>
            </trkpt>
            <trkpt lon="101.052897" lat="14.313060">
                <ele>5.424561</ele>
                <time>2006-12-17T03:57:05Z</time>
            </trkpt>
            <trkpt lon="101.052886" lat="14.313150">
                <ele>4.943848</ele>
                <time>2006-12-17T03:57:14Z</time>
            </trkpt>
            <trkpt lon="101.052976" lat="14.313236">
                <ele>4.943848</ele>
                <time>2006-12-17T03:57:28Z</time>
            </trkpt>
            <trkpt lon="101.053040" lat="14.313288">
                <ele>4.463257</ele>
                <time>2006-12-17T03:57:36Z</time>
            </trkpt>
            <trkpt lon="101.053053" lat="14.313413">
                <ele>3.501953</ele>
                <time>2006-12-17T03:57:52Z</time>
            </trkpt>
            <trkpt lon="101.053104" lat="14.313489">
                <ele>3.982666</ele>
                <time>2006-12-17T03:58:06Z</time>
            </trkpt>
            <trkpt lon="101.053131" lat="14.313511">
                <ele>7.827881</ele>
                <time>2006-12-17T03:58:27Z</time>
            </trkpt>
            <trkpt lon="101.053179" lat="14.313517">
                <ele>7.347168</ele>
                <time>2006-12-17T03:58:40Z</time>
            </trkpt>
            <trkpt lon="101.053429" lat="14.313523">
                <ele>8.789185</ele>
                <time>2006-12-17T03:58:53Z</time>
            </trkpt>
            <trkpt lon="101.053535" lat="14.313489">
                <ele>7.827881</ele>
                <time>2006-12-17T03:58:57Z</time>
            </trkpt>
            <trkpt lon="101.053866" lat="14.313445">
                <ele>3.982666</ele>
                <time>2006-12-17T03:59:11Z</time>
            </trkpt>
            <trkpt lon="101.054150" lat="14.313417">
                <ele>5.424561</ele>
                <time>2006-12-17T03:59:24Z</time>
            </trkpt>
            <trkpt lon="101.054192" lat="14.313455">
                <ele>5.424561</ele>
                <time>2006-12-17T03:59:28Z</time>
            </trkpt>
            <trkpt lon="101.054252" lat="14.313641">
                <ele>6.385864</ele>
                <time>2006-12-17T03:59:35Z</time>
            </trkpt>
            <trkpt lon="101.054348" lat="14.314067">
                <ele>5.424561</ele>
                <time>2006-12-17T03:59:49Z</time>
            </trkpt>
            <trkpt lon="101.054349" lat="14.314070">
                <ele>5.424561</ele>
                <time>2006-12-17T03:59:52Z</time>
            </trkpt>
            <trkpt lon="101.053798" lat="14.315330">
                <ele>5.424561</ele>
                <time>2006-12-17T04:00:10Z</time>
            </trkpt>
            <trkpt lon="101.053773" lat="14.315373">
                <ele>5.424561</ele>
                <time>2006-12-17T04:00:11Z</time>
            </trkpt>
            <trkpt lon="101.053560" lat="14.315539">
                <ele>4.463257</ele>
                <time>2006-12-17T04:00:16Z</time>
            </trkpt>
            <trkpt lon="101.052771" lat="14.315938">
                <ele>3.501953</ele>
                <time>2006-12-17T04:00:32Z</time>
            </trkpt>
            <trkpt lon="101.052682" lat="14.315976">
                <ele>3.501953</ele>
                <time>2006-12-17T04:00:34Z</time>
            </trkpt>
            <trkpt lon="101.052649" lat="14.316166">
                <ele>4.463257</ele>
                <time>2006-12-17T04:00:40Z</time>
            </trkpt>
            <trkpt lon="101.052717" lat="14.316269">
                <ele>4.463257</ele>
                <time>2006-12-17T04:00:43Z</time>
            </trkpt>
            <trkpt lon="101.052955" lat="14.316702">
                <ele>4.463257</ele>
                <time>2006-12-17T04:00:55Z</time>
            </trkpt>
            <trkpt lon="101.052668" lat="14.316931">
                <ele>4.943848</ele>
                <time>2006-12-17T04:01:05Z</time>
            </trkpt>
            <trkpt lon="101.051775" lat="14.317486">
                <ele>4.463257</ele>
                <time>2006-12-17T04:01:27Z</time>
            </trkpt>
            <trkpt lon="101.051187" lat="14.317959">
                <ele>3.982666</ele>
                <time>2006-12-17T04:01:45Z</time>
            </trkpt>
            <trkpt lon="101.051102" lat="14.318049">
                <ele>3.982666</ele>
                <time>2006-12-17T04:01:48Z</time>
            </trkpt>
            <trkpt lon="101.050719" lat="14.318282">
                <ele>3.982666</ele>
                <time>2006-12-17T04:02:02Z</time>
            </trkpt>
            <trkpt lon="101.050192" lat="14.318536">
                <ele>4.463257</ele>
                <time>2006-12-17T04:02:18Z</time>
            </trkpt>
            <trkpt lon="101.049346" lat="14.319000">
                <ele>4.943848</ele>
                <time>2006-12-17T04:02:40Z</time>
            </trkpt>
            <trkpt lon="101.048609" lat="14.319481">
                <ele>3.501953</ele>
                <time>2006-12-17T04:03:01Z</time>
            </trkpt>
            <trkpt lon="101.048512" lat="14.319525">
                <ele>3.982666</ele>
                <time>2006-12-17T04:03:04Z</time>
            </trkpt>
            <trkpt lon="101.048414" lat="14.319426">
                <ele>3.982666</ele>
                <time>2006-12-17T04:03:09Z</time>
            </trkpt>
            <trkpt lon="101.048328" lat="14.319352">
                <ele>3.982666</ele>
                <time>2006-12-17T04:03:13Z</time>
            </trkpt>
            <trkpt lon="101.048232" lat="14.319389">
                <ele>3.982666</ele>
                <time>2006-12-17T04:03:17Z</time>
            </trkpt>
            <trkpt lon="101.047937" lat="14.319537">
                <ele>2.540649</ele>
                <time>2006-12-17T04:03:29Z</time>
            </trkpt>
            <trkpt lon="101.047861" lat="14.319562">
                <ele>3.021240</ele>
                <time>2006-12-17T04:03:33Z</time>
            </trkpt>
            <trkpt lon="101.047447" lat="14.319861">
                <ele>2.540649</ele>
                <time>2006-12-17T04:03:54Z</time>
            </trkpt>
            <trkpt lon="101.047069" lat="14.320154">
                <ele>2.540649</ele>
                <time>2006-12-17T04:04:13Z</time>
            </trkpt>
            <trkpt lon="101.046772" lat="14.320391">
                <ele>2.540649</ele>
                <time>2006-12-17T04:04:30Z</time>
            </trkpt>
            <trkpt lon="101.046310" lat="14.320750">
                <ele>2.540649</ele>
                <time>2006-12-17T04:04:55Z</time>
            </trkpt>
            <trkpt lon="101.045876" lat="14.321048">
                <ele>2.540649</ele>
                <time>2006-12-17T04:05:14Z</time>
            </trkpt>
            <trkpt lon="101.045818" lat="14.321083">
                <ele>2.540649</ele>
                <time>2006-12-17T04:05:18Z</time>
            </trkpt>
            <trkpt lon="101.045845" lat="14.321153">
                <ele>2.540649</ele>
                <time>2006-12-17T04:05:23Z</time>
            </trkpt>
            <trkpt lon="101.046227" lat="14.321757">
                <ele>3.021240</ele>
                <time>2006-12-17T04:05:42Z</time>
            </trkpt>
            <trkpt lon="101.046350" lat="14.321933">
                <ele>3.501953</ele>
                <time>2006-12-17T04:05:47Z</time>
            </trkpt>
            <trkpt lon="101.046305" lat="14.322046">
                <ele>3.982666</ele>
                <time>2006-12-17T04:05:51Z</time>
            </trkpt>
            <trkpt lon="101.045624" lat="14.322597">
                <ele>3.982666</ele>
                <time>2006-12-17T04:06:12Z</time>
            </trkpt>
            <trkpt lon="101.045554" lat="14.322652">
                <ele>3.982666</ele>
                <time>2006-12-17T04:06:14Z</time>
            </trkpt>
            <trkpt lon="101.045531" lat="14.322836">
                <ele>3.982666</ele>
                <time>2006-12-17T04:06:19Z</time>
            </trkpt>
            <trkpt lon="101.045597" lat="14.322978">
                <ele>3.982666</ele>
                <time>2006-12-17T04:06:23Z</time>
            </trkpt>
            <trkpt lon="101.045309" lat="14.323170">
                <ele>3.982666</ele>
                <time>2006-12-17T04:06:32Z</time>
            </trkpt>
            <trkpt lon="101.044606" lat="14.323551">
                <ele>4.463257</ele>
                <time>2006-12-17T04:06:48Z</time>
            </trkpt>
            <trkpt lon="101.044409" lat="14.323459">
                <ele>4.463257</ele>
                <time>2006-12-17T04:06:53Z</time>
            </trkpt>
            <trkpt lon="101.044328" lat="14.323322">
                <ele>4.943848</ele>
                <time>2006-12-17T04:06:56Z</time>
            </trkpt>
            <trkpt lon="101.044309" lat="14.323105">
                <ele>4.943848</ele>
                <time>2006-12-17T04:07:00Z</time>
            </trkpt>
            <trkpt lon="101.044338" lat="14.322721">
                <ele>4.463257</ele>
                <time>2006-12-17T04:07:07Z</time>
            </trkpt>
            <trkpt lon="101.044160" lat="14.322590">
                <ele>4.463257</ele>
                <time>2006-12-17T04:07:13Z</time>
            </trkpt>
            <trkpt lon="101.043075" lat="14.322674">
                <ele>4.463257</ele>
                <time>2006-12-17T04:07:33Z</time>
            </trkpt>
            <trkpt lon="101.042593" lat="14.322749">
                <ele>3.982666</ele>
                <time>2006-12-17T04:07:42Z</time>
            </trkpt>
            <trkpt lon="101.041579" lat="14.322950">
                <ele>3.021240</ele>
                <time>2006-12-17T04:08:01Z</time>
            </trkpt>
            <trkpt lon="101.040861" lat="14.323102">
                <ele>3.982666</ele>
                <time>2006-12-17T04:08:14Z</time>
            </trkpt>
            <trkpt lon="101.040763" lat="14.323331">
                <ele>3.982666</ele>
                <time>2006-12-17T04:08:19Z</time>
            </trkpt>
            <trkpt lon="101.040754" lat="14.323900">
                <ele>4.943848</ele>
                <time>2006-12-17T04:08:30Z</time>
            </trkpt>
            <trkpt lon="101.040564" lat="14.324112">
                <ele>5.424561</ele>
                <time>2006-12-17T04:08:36Z</time>
            </trkpt>
            <trkpt lon="101.039290" lat="14.324487">
                <ele>5.905273</ele>
                <time>2006-12-17T04:09:00Z</time>
            </trkpt>
            <trkpt lon="101.038622" lat="14.324748">
                <ele>5.424561</ele>
                <time>2006-12-17T04:09:13Z</time>
            </trkpt>
            <trkpt lon="101.038588" lat="14.324971">
                <ele>5.905273</ele>
                <time>2006-12-17T04:09:21Z</time>
            </trkpt>
            <trkpt lon="101.039201" lat="14.325582">
                <ele>6.866455</ele>
                <time>2006-12-17T04:09:38Z</time>
            </trkpt>
            <trkpt lon="101.040084" lat="14.326461">
                <ele>6.866455</ele>
                <time>2006-12-17T04:09:59Z</time>
            </trkpt>
            <trkpt lon="101.041115" lat="14.327490">
                <ele>7.347168</ele>
                <time>2006-12-17T04:10:22Z</time>
            </trkpt>
            <trkpt lon="101.042211" lat="14.328587">
                <ele>6.866455</ele>
                <time>2006-12-17T04:10:46Z</time>
            </trkpt>
            <trkpt lon="101.043255" lat="14.329635">
                <ele>6.866455</ele>
                <time>2006-12-17T04:11:08Z</time>
            </trkpt>
            <trkpt lon="101.044326" lat="14.330702">
                <ele>6.866455</ele>
                <time>2006-12-17T04:11:31Z</time>
            </trkpt>
            <trkpt lon="101.045322" lat="14.331709">
                <ele>7.347168</ele>
                <time>2006-12-17T04:11:54Z</time>
            </trkpt>
            <trkpt lon="101.046389" lat="14.332777">
                <ele>7.347168</ele>
                <time>2006-12-17T04:12:18Z</time>
            </trkpt>
            <trkpt lon="101.047447" lat="14.333841">
                <ele>7.347168</ele>
                <time>2006-12-17T04:12:42Z</time>
            </trkpt>
            <trkpt lon="101.048311" lat="14.334694">
                <ele>6.866455</ele>
                <time>2006-12-17T04:13:02Z</time>
            </trkpt>
            <trkpt lon="101.049278" lat="14.335661">
                <ele>7.347168</ele>
                <time>2006-12-17T04:13:25Z</time>
            </trkpt>
            <trkpt lon="101.050311" lat="14.336697">
                <ele>7.347168</ele>
                <time>2006-12-17T04:13:49Z</time>
            </trkpt>
            <trkpt lon="101.051484" lat="14.337869">
                <ele>7.827881</ele>
                <time>2006-12-17T04:14:16Z</time>
            </trkpt>
            <trkpt lon="101.052488" lat="14.338871">
                <ele>7.827881</ele>
                <time>2006-12-17T04:14:40Z</time>
            </trkpt>
            <trkpt lon="101.053424" lat="14.339808">
                <ele>8.308594</ele>
                <time>2006-12-17T04:15:02Z</time>
            </trkpt>
            <trkpt lon="101.054402" lat="14.340781">
                <ele>8.308594</ele>
                <time>2006-12-17T04:15:25Z</time>
            </trkpt>
            <trkpt lon="101.055256" lat="14.341666">
                <ele>9.269897</ele>
                <time>2006-12-17T04:15:46Z</time>
            </trkpt>
            <trkpt lon="101.056065" lat="14.342618">
                <ele>10.231201</ele>
                <time>2006-12-17T04:16:08Z</time>
            </trkpt>
            <trkpt lon="101.056875" lat="14.343593">
                <ele>10.231201</ele>
                <time>2006-12-17T04:16:30Z</time>
            </trkpt>
            <trkpt lon="101.057648" lat="14.344571">
                <ele>9.750610</ele>
                <time>2006-12-17T04:16:52Z</time>
            </trkpt>
            <trkpt lon="101.058685" lat="14.345873">
                <ele>9.269897</ele>
                <time>2006-12-17T04:17:21Z</time>
            </trkpt>
            <trkpt lon="101.058947" lat="14.346225">
                <ele>8.789185</ele>
                <time>2006-12-17T04:17:29Z</time>
            </trkpt>
            <trkpt lon="101.059357" lat="14.347336">
                <ele>11.192505</ele>
                <time>2006-12-17T04:17:50Z</time>
            </trkpt>
            <trkpt lon="101.059642" lat="14.348149">
                <ele>11.673218</ele>
                <time>2006-12-17T04:18:08Z</time>
            </trkpt>
            <trkpt lon="101.059684" lat="14.348286">
                <ele>12.153809</ele>
                <time>2006-12-17T04:18:18Z</time>
            </trkpt>
            <trkpt lon="101.059680" lat="14.348260">
                <ele>8.789185</ele>
                <time>2006-12-17T04:18:43Z</time>
            </trkpt>
            <trkpt lon="101.059742" lat="14.348381">
                <ele>9.269897</ele>
                <time>2006-12-17T04:35:11Z</time>
            </trkpt>
            <trkpt lon="101.059952" lat="14.349018">
                <ele>9.750610</ele>
                <time>2006-12-17T04:35:27Z</time>
            </trkpt>
            <trkpt lon="101.060319" lat="14.350019">
                <ele>9.269897</ele>
                <time>2006-12-17T04:35:48Z</time>
            </trkpt>
            <trkpt lon="101.060792" lat="14.351169">
                <ele>9.750610</ele>
                <time>2006-12-17T04:36:12Z</time>
            </trkpt>
            <trkpt lon="101.061168" lat="14.352071">
                <ele>10.711792</ele>
                <time>2006-12-17T04:36:30Z</time>
            </trkpt>
            <trkpt lon="101.061682" lat="14.353283">
                <ele>10.711792</ele>
                <time>2006-12-17T04:36:55Z</time>
            </trkpt>
            <trkpt lon="101.062055" lat="14.354202">
                <ele>11.673218</ele>
                <time>2006-12-17T04:37:15Z</time>
            </trkpt>
            <trkpt lon="101.062512" lat="14.355326">
                <ele>13.595825</ele>
                <time>2006-12-17T04:37:39Z</time>
            </trkpt>
            <trkpt lon="101.062855" lat="14.356293">
                <ele>15.518433</ele>
                <time>2006-12-17T04:37:59Z</time>
            </trkpt>
            <trkpt lon="101.062891" lat="14.356444">
                <ele>15.518433</ele>
                <time>2006-12-17T04:38:02Z</time>
            </trkpt>
            <trkpt lon="101.063133" lat="14.357446">
                <ele>17.441162</ele>
                <time>2006-12-17T04:38:22Z</time>
            </trkpt>
            <trkpt lon="101.063428" lat="14.358733">
                <ele>20.324951</ele>
                <time>2006-12-17T04:38:47Z</time>
            </trkpt>
            <trkpt lon="101.063760" lat="14.359862">
                <ele>19.363770</ele>
                <time>2006-12-17T04:39:09Z</time>
            </trkpt>
            <trkpt lon="101.064011" lat="14.361177">
                <ele>19.844360</ele>
                <time>2006-12-17T04:39:32Z</time>
            </trkpt>
            <trkpt lon="101.064243" lat="14.362346">
                <ele>19.844360</ele>
                <time>2006-12-17T04:39:53Z</time>
            </trkpt>
            <trkpt lon="101.064640" lat="14.363411">
                <ele>18.402344</ele>
                <time>2006-12-17T04:40:12Z</time>
            </trkpt>
            <trkpt lon="101.065107" lat="14.364482">
                <ele>17.441162</ele>
                <time>2006-12-17T04:40:32Z</time>
            </trkpt>
            <trkpt lon="101.065905" lat="14.365347">
                <ele>17.921753</ele>
                <time>2006-12-17T04:40:51Z</time>
            </trkpt>
            <trkpt lon="101.066694" lat="14.366466">
                <ele>18.402344</ele>
                <time>2006-12-17T04:41:13Z</time>
            </trkpt>
            <trkpt lon="101.067076" lat="14.367571">
                <ele>18.402344</ele>
                <time>2006-12-17T04:41:33Z</time>
            </trkpt>
            <trkpt lon="101.067539" lat="14.368810">
                <ele>17.441162</ele>
                <time>2006-12-17T04:41:56Z</time>
            </trkpt>
            <trkpt lon="101.067678" lat="14.369294">
                <ele>19.363770</ele>
                <time>2006-12-17T04:42:09Z</time>
            </trkpt>
            <trkpt lon="101.067575" lat="14.369339">
                <ele>19.844360</ele>
                <time>2006-12-17T04:42:12Z</time>
            </trkpt>
            <trkpt lon="101.066826" lat="14.369604">
                <ele>20.324951</ele>
                <time>2006-12-17T04:42:30Z</time>
            </trkpt>
            <trkpt lon="101.066003" lat="14.369866">
                <ele>21.286377</ele>
                <time>2006-12-17T04:42:50Z</time>
            </trkpt>
            <trkpt lon="101.064867" lat="14.370319">
                <ele>23.689575</ele>
                <time>2006-12-17T04:43:18Z</time>
            </trkpt>
            <trkpt lon="101.064779" lat="14.370324">
                <ele>24.170288</ele>
                <time>2006-12-17T04:43:20Z</time>
            </trkpt>
            <trkpt lon="101.064526" lat="14.370141">
                <ele>24.651001</ele>
                <time>2006-12-17T04:43:27Z</time>
            </trkpt>
            <trkpt lon="101.064434" lat="14.369882">
                <ele>24.170288</ele>
                <time>2006-12-17T04:43:32Z</time>
            </trkpt>
            <trkpt lon="101.064267" lat="14.369705">
                <ele>22.728271</ele>
                <time>2006-12-17T04:43:36Z</time>
            </trkpt>
            <trkpt lon="101.063953" lat="14.369631">
                <ele>22.247559</ele>
                <time>2006-12-17T04:43:42Z</time>
            </trkpt>
            <trkpt lon="101.063678" lat="14.369635">
                <ele>21.766968</ele>
                <time>2006-12-17T04:43:47Z</time>
            </trkpt>
            <trkpt lon="101.062971" lat="14.369310">
                <ele>21.286377</ele>
                <time>2006-12-17T04:44:01Z</time>
            </trkpt>
            <trkpt lon="101.062148" lat="14.368937">
                <ele>20.805664</ele>
                <time>2006-12-17T04:44:18Z</time>
            </trkpt>
            <trkpt lon="101.061535" lat="14.369030">
                <ele>22.247559</ele>
                <time>2006-12-17T04:44:32Z</time>
            </trkpt>
            <trkpt lon="101.060959" lat="14.369440">
                <ele>23.208984</ele>
                <time>2006-12-17T04:44:50Z</time>
            </trkpt>
            <trkpt lon="101.060293" lat="14.370016">
                <ele>21.286377</ele>
                <time>2006-12-17T04:45:07Z</time>
            </trkpt>
            <trkpt lon="101.060211" lat="14.370062">
                <ele>21.286377</ele>
                <time>2006-12-17T04:45:09Z</time>
            </trkpt>
            <trkpt lon="101.059422" lat="14.370111">
                <ele>20.805664</ele>
                <time>2006-12-17T04:45:23Z</time>
            </trkpt>
            <trkpt lon="101.058840" lat="14.370511">
                <ele>19.844360</ele>
                <time>2006-12-17T04:45:36Z</time>
            </trkpt>
            <trkpt lon="101.058282" lat="14.371163">
                <ele>18.883057</ele>
                <time>2006-12-17T04:45:54Z</time>
            </trkpt>
            <trkpt lon="101.058274" lat="14.371186">
                <ele>18.883057</ele>
                <time>2006-12-17T04:45:55Z</time>
            </trkpt>
            <trkpt lon="101.058468" lat="14.371290">
                <ele>19.363770</ele>
                <time>2006-12-17T04:46:04Z</time>
            </trkpt>
            <trkpt lon="101.058585" lat="14.371461">
                <ele>19.844360</ele>
                <time>2006-12-17T04:46:11Z</time>
            </trkpt>
            <trkpt lon="101.058566" lat="14.371992">
                <ele>19.844360</ele>
                <time>2006-12-17T04:46:30Z</time>
            </trkpt>
            <trkpt lon="101.058620" lat="14.372267">
                <ele>20.324951</ele>
                <time>2006-12-17T04:46:39Z</time>
            </trkpt>
            <trkpt lon="101.058957" lat="14.372360">
                <ele>23.689575</ele>
                <time>2006-12-17T04:46:56Z</time>
            </trkpt>
            <trkpt lon="101.059179" lat="14.372437">
                <ele>26.092896</ele>
                <time>2006-12-17T04:47:10Z</time>
            </trkpt>
            <trkpt lon="101.059294" lat="14.372636">
                <ele>28.496216</ele>
                <time>2006-12-17T04:47:23Z</time>
            </trkpt>
            <trkpt lon="101.059351" lat="14.372876">
                <ele>28.976929</ele>
                <time>2006-12-17T04:47:40Z</time>
            </trkpt>
            <trkpt lon="101.059438" lat="14.372993">
                <ele>29.938110</ele>
                <time>2006-12-17T04:47:54Z</time>
            </trkpt>
            <trkpt lon="101.059484" lat="14.373072">
                <ele>31.860718</ele>
                <time>2006-12-17T04:48:25Z</time>
            </trkpt>
            <trkpt lon="101.059496" lat="14.373168">
                <ele>31.380127</ele>
                <time>2006-12-17T04:48:35Z</time>
            </trkpt>
            <trkpt lon="101.059702" lat="14.373285">
                <ele>34.264160</ele>
                <time>2006-12-17T04:48:53Z</time>
            </trkpt>
            <trkpt lon="101.059790" lat="14.373490">
                <ele>37.628662</ele>
                <time>2006-12-17T04:49:10Z</time>
            </trkpt>
            <trkpt lon="101.059768" lat="14.373660">
                <ele>39.070679</ele>
                <time>2006-12-17T04:49:24Z</time>
            </trkpt>
            <trkpt lon="101.059756" lat="14.373778">
                <ele>37.628662</ele>
                <time>2006-12-17T04:49:36Z</time>
            </trkpt>
            <trkpt lon="101.059744" lat="14.373800">
                <ele>37.628662</ele>
                <time>2006-12-17T04:49:50Z</time>
            </trkpt>
            <trkpt lon="101.059651" lat="14.374027">
                <ele>35.225464</ele>
                <time>2006-12-17T04:50:04Z</time>
            </trkpt>
            <trkpt lon="101.059555" lat="14.374215">
                <ele>34.264160</ele>
                <time>2006-12-17T04:50:14Z</time>
            </trkpt>
            <trkpt lon="101.059305" lat="14.374344">
                <ele>32.822266</ele>
                <time>2006-12-17T04:50:30Z</time>
            </trkpt>
            <trkpt lon="101.059312" lat="14.374421">
                <ele>31.860718</ele>
                <time>2006-12-17T04:50:50Z</time>
            </trkpt>
            <trkpt lon="101.059300" lat="14.374455">
                <ele>32.822266</ele>
                <time>2006-12-17T04:50:56Z</time>
            </trkpt>
            <trkpt lon="101.059321" lat="14.374741">
                <ele>33.783447</ele>
                <time>2006-12-17T04:51:10Z</time>
            </trkpt>
            <trkpt lon="101.059349" lat="14.375098">
                <ele>34.264160</ele>
                <time>2006-12-17T04:51:26Z</time>
            </trkpt>
            <trkpt lon="101.059437" lat="14.375320">
                <ele>35.706055</ele>
                <time>2006-12-17T04:51:39Z</time>
            </trkpt>
            <trkpt lon="101.059490" lat="14.375654">
                <ele>38.109375</ele>
                <time>2006-12-17T04:51:58Z</time>
            </trkpt>
            <trkpt lon="101.059547" lat="14.375952">
                <ele>39.070679</ele>
                <time>2006-12-17T04:52:16Z</time>
            </trkpt>
            <trkpt lon="101.059590" lat="14.376266">
                <ele>40.512817</ele>
                <time>2006-12-17T04:52:33Z</time>
            </trkpt>
            <trkpt lon="101.059616" lat="14.376499">
                <ele>41.473999</ele>
                <time>2006-12-17T04:52:49Z</time>
            </trkpt>
            <trkpt lon="101.059611" lat="14.376532">
                <ele>41.473999</ele>
                <time>2006-12-17T04:52:51Z</time>
            </trkpt>
            <trkpt lon="101.059261" lat="14.376655">
                <ele>40.993408</ele>
                <time>2006-12-17T04:53:07Z</time>
            </trkpt>
            <trkpt lon="101.058888" lat="14.376815">
                <ele>41.473999</ele>
                <time>2006-12-17T04:53:19Z</time>
            </trkpt>
            <trkpt lon="101.058532" lat="14.377005">
                <ele>40.512817</ele>
                <time>2006-12-17T04:53:29Z</time>
            </trkpt>
            <trkpt lon="101.057974" lat="14.377138">
                <ele>35.706055</ele>
                <time>2006-12-17T04:53:44Z</time>
            </trkpt>
            <trkpt lon="101.057192" lat="14.377120">
                <ele>33.783447</ele>
                <time>2006-12-17T04:54:00Z</time>
            </trkpt>
            <trkpt lon="101.056375" lat="14.377123">
                <ele>30.418823</ele>
                <time>2006-12-17T04:54:16Z</time>
            </trkpt>
            <trkpt lon="101.056062" lat="14.377104">
                <ele>29.938110</ele>
                <time>2006-12-17T04:54:22Z</time>
            </trkpt>
            <trkpt lon="101.055333" lat="14.377040">
                <ele>27.054321</ele>
                <time>2006-12-17T04:54:39Z</time>
            </trkpt>
            <trkpt lon="101.054696" lat="14.377020">
                <ele>23.689575</ele>
                <time>2006-12-17T04:54:55Z</time>
            </trkpt>
            <trkpt lon="101.054318" lat="14.376975">
                <ele>22.728271</ele>
                <time>2006-12-17T04:55:04Z</time>
            </trkpt>
            <trkpt lon="101.053817" lat="14.376944">
                <ele>20.324951</ele>
                <time>2006-12-17T04:55:15Z</time>
            </trkpt>
            <trkpt lon="101.053492" lat="14.376906">
                <ele>19.844360</ele>
                <time>2006-12-17T04:55:23Z</time>
            </trkpt>
            <trkpt lon="101.053444" lat="14.377018">
                <ele>19.363770</ele>
                <time>2006-12-17T04:55:27Z</time>
            </trkpt>
            <trkpt lon="101.053368" lat="14.377896">
                <ele>18.402344</ele>
                <time>2006-12-17T04:55:48Z</time>
            </trkpt>
            <trkpt lon="101.053494" lat="14.378683">
                <ele>20.805664</ele>
                <time>2006-12-17T04:56:07Z</time>
            </trkpt>
            <trkpt lon="101.053835" lat="14.379645">
                <ele>22.728271</ele>
                <time>2006-12-17T04:56:30Z</time>
            </trkpt>
            <trkpt lon="101.054239" lat="14.380740">
                <ele>22.728271</ele>
                <time>2006-12-17T04:56:56Z</time>
            </trkpt>
            <trkpt lon="101.054605" lat="14.381703">
                <ele>23.689575</ele>
                <time>2006-12-17T04:57:17Z</time>
            </trkpt>
            <trkpt lon="101.055006" lat="14.382833">
                <ele>24.170288</ele>
                <time>2006-12-17T04:57:40Z</time>
            </trkpt>
            <trkpt lon="101.055050" lat="14.383919">
                <ele>27.054321</ele>
                <time>2006-12-17T04:58:03Z</time>
            </trkpt>
            <trkpt lon="101.054990" lat="14.384271">
                <ele>27.534912</ele>
                <time>2006-12-17T04:58:11Z</time>
            </trkpt>
            <trkpt lon="101.055022" lat="14.384440">
                <ele>28.015503</ele>
                <time>2006-12-17T04:58:16Z</time>
            </trkpt>
            <trkpt lon="101.055536" lat="14.384826">
                <ele>30.418823</ele>
                <time>2006-12-17T04:58:36Z</time>
            </trkpt>
            <trkpt lon="101.055734" lat="14.385210">
                <ele>30.899536</ele>
                <time>2006-12-17T04:58:49Z</time>
            </trkpt>
            <trkpt lon="101.056010" lat="14.385637">
                <ele>32.341553</ele>
                <time>2006-12-17T04:59:11Z</time>
            </trkpt>
            <trkpt lon="101.056221" lat="14.385870">
                <ele>36.186768</ele>
                <time>2006-12-17T04:59:28Z</time>
            </trkpt>
            <trkpt lon="101.056501" lat="14.386060">
                <ele>40.512817</ele>
                <time>2006-12-17T04:59:49Z</time>
            </trkpt>
            <trkpt lon="101.056789" lat="14.386237">
                <ele>44.838623</ele>
                <time>2006-12-17T05:00:11Z</time>
            </trkpt>
            <trkpt lon="101.057088" lat="14.386372">
                <ele>48.203369</ele>
                <time>2006-12-17T05:00:30Z</time>
            </trkpt>
            <trkpt lon="101.057554" lat="14.386685">
                <ele>47.722534</ele>
                <time>2006-12-17T05:00:46Z</time>
            </trkpt>
            <trkpt lon="101.058272" lat="14.387181">
                <ele>43.877319</ele>
                <time>2006-12-17T05:01:06Z</time>
            </trkpt>
            <trkpt lon="101.059067" lat="14.387747">
                <ele>42.916016</ele>
                <time>2006-12-17T05:01:25Z</time>
            </trkpt>
            <trkpt lon="101.059895" lat="14.388259">
                <ele>40.032104</ele>
                <time>2006-12-17T05:01:42Z</time>
            </trkpt>
            <trkpt lon="101.060092" lat="14.388270">
                <ele>39.551270</ele>
                <time>2006-12-17T05:01:46Z</time>
            </trkpt>
            <trkpt lon="101.060657" lat="14.388235">
                <ele>39.551270</ele>
                <time>2006-12-17T05:02:00Z</time>
            </trkpt>
            <trkpt lon="101.061216" lat="14.388362">
                <ele>38.590088</ele>
                <time>2006-12-17T05:02:13Z</time>
            </trkpt>
            <trkpt lon="101.061426" lat="14.388415">
                <ele>38.109375</ele>
                <time>2006-12-17T05:02:18Z</time>
            </trkpt>
            <trkpt lon="101.061559" lat="14.388418">
                <ele>37.628662</ele>
                <time>2006-12-17T05:02:21Z</time>
            </trkpt>
            <trkpt lon="101.062286" lat="14.388407">
                <ele>36.667480</ele>
                <time>2006-12-17T05:02:37Z</time>
            </trkpt>
            <trkpt lon="101.062790" lat="14.388076">
                <ele>35.706055</ele>
                <time>2006-12-17T05:02:49Z</time>
            </trkpt>
            <trkpt lon="101.062960" lat="14.387955">
                <ele>35.706055</ele>
                <time>2006-12-17T05:02:53Z</time>
            </trkpt>
            <trkpt lon="101.063664" lat="14.387672">
                <ele>35.706055</ele>
                <time>2006-12-17T05:03:10Z</time>
            </trkpt>
            <trkpt lon="101.063793" lat="14.387629">
                <ele>36.186768</ele>
                <time>2006-12-17T05:03:13Z</time>
            </trkpt>
            <trkpt lon="101.064107" lat="14.387515">
                <ele>35.706055</ele>
                <time>2006-12-17T05:03:21Z</time>
            </trkpt>
            <trkpt lon="101.064654" lat="14.387406">
                <ele>34.744873</ele>
                <time>2006-12-17T05:03:33Z</time>
            </trkpt>
            <trkpt lon="101.065002" lat="14.387395">
                <ele>33.783447</ele>
                <time>2006-12-17T05:03:40Z</time>
            </trkpt>
            <trkpt lon="101.065201" lat="14.387265">
                <ele>32.822266</ele>
                <time>2006-12-17T05:03:45Z</time>
            </trkpt>
            <trkpt lon="101.065297" lat="14.387139">
                <ele>32.341553</ele>
                <time>2006-12-17T05:03:48Z</time>
            </trkpt>
            <trkpt lon="101.065368" lat="14.386992">
                <ele>31.860718</ele>
                <time>2006-12-17T05:03:51Z</time>
            </trkpt>
            <trkpt lon="101.065495" lat="14.386827">
                <ele>31.380127</ele>
                <time>2006-12-17T05:03:55Z</time>
            </trkpt>
            <trkpt lon="101.065606" lat="14.386736">
                <ele>31.380127</ele>
                <time>2006-12-17T05:03:58Z</time>
            </trkpt>
            <trkpt lon="101.065823" lat="14.386405">
                <ele>29.457520</ele>
                <time>2006-12-17T05:04:06Z</time>
            </trkpt>
            <trkpt lon="101.065973" lat="14.386271">
                <ele>29.457520</ele>
                <time>2006-12-17T05:04:10Z</time>
            </trkpt>
            <trkpt lon="101.066067" lat="14.386227">
                <ele>29.457520</ele>
                <time>2006-12-17T05:04:12Z</time>
            </trkpt>
            <trkpt lon="101.066271" lat="14.386198">
                <ele>28.976929</ele>
                <time>2006-12-17T05:04:16Z</time>
            </trkpt>
            <trkpt lon="101.066489" lat="14.385922">
                <ele>28.496216</ele>
                <time>2006-12-17T05:04:24Z</time>
            </trkpt>
            <trkpt lon="101.066446" lat="14.385838">
                <ele>28.496216</ele>
                <time>2006-12-17T05:04:26Z</time>
            </trkpt>
            <trkpt lon="101.066348" lat="14.385684">
                <ele>28.976929</ele>
                <time>2006-12-17T05:04:30Z</time>
            </trkpt>
            <trkpt lon="101.066312" lat="14.385603">
                <ele>28.976929</ele>
                <time>2006-12-17T05:04:32Z</time>
            </trkpt>
            <trkpt lon="101.066294" lat="14.385516">
                <ele>28.496216</ele>
                <time>2006-12-17T05:04:34Z</time>
            </trkpt>
            <trkpt lon="101.066225" lat="14.385081">
                <ele>28.496216</ele>
                <time>2006-12-17T05:04:44Z</time>
            </trkpt>
            <trkpt lon="101.066253" lat="14.384952">
                <ele>28.496216</ele>
                <time>2006-12-17T05:04:47Z</time>
            </trkpt>
            <trkpt lon="101.066361" lat="14.384803">
                <ele>28.015503</ele>
                <time>2006-12-17T05:04:51Z</time>
            </trkpt>
            <trkpt lon="101.066430" lat="14.384740">
                <ele>28.015503</ele>
                <time>2006-12-17T05:04:53Z</time>
            </trkpt>
            <trkpt lon="101.066726" lat="14.384327">
                <ele>27.534912</ele>
                <time>2006-12-17T05:05:04Z</time>
            </trkpt>
            <trkpt lon="101.067012" lat="14.384114">
                <ele>27.054321</ele>
                <time>2006-12-17T05:05:11Z</time>
            </trkpt>
            <trkpt lon="101.067310" lat="14.383787">
                <ele>26.573608</ele>
                <time>2006-12-17T05:05:20Z</time>
            </trkpt>
            <trkpt lon="101.067662" lat="14.382025">
                <ele>40.993408</ele>
                <time>2006-12-17T05:06:01Z</time>
            </trkpt>
            <trkpt lon="101.067757" lat="14.381686">
                <ele>24.170288</ele>
                <time>2006-12-17T05:06:08Z</time>
            </trkpt>
            <trkpt lon="101.067739" lat="14.380944">
                <ele>25.131714</ele>
                <time>2006-12-17T05:06:21Z</time>
            </trkpt>
            <trkpt lon="101.067536" lat="14.380621">
                <ele>24.651001</ele>
                <time>2006-12-17T05:06:28Z</time>
            </trkpt>
            <trkpt lon="101.067278" lat="14.380410">
                <ele>24.170288</ele>
                <time>2006-12-17T05:06:34Z</time>
            </trkpt>
            <trkpt lon="101.067208" lat="14.380113">
                <ele>24.170288</ele>
                <time>2006-12-17T05:06:41Z</time>
            </trkpt>
            <trkpt lon="101.067546" lat="14.379386">
                <ele>24.170288</ele>
                <time>2006-12-17T05:06:57Z</time>
            </trkpt>
            <trkpt lon="101.068052" lat="14.378815">
                <ele>24.651001</ele>
                <time>2006-12-17T05:07:11Z</time>
            </trkpt>
            <trkpt lon="101.068129" lat="14.378653">
                <ele>24.651001</ele>
                <time>2006-12-17T05:07:14Z</time>
            </trkpt>
            <trkpt lon="101.068254" lat="14.377856">
                <ele>24.651001</ele>
                <time>2006-12-17T05:07:28Z</time>
            </trkpt>
            <trkpt lon="101.068507" lat="14.377312">
                <ele>24.651001</ele>
                <time>2006-12-17T05:07:39Z</time>
            </trkpt>
            <trkpt lon="101.068503" lat="14.376913">
                <ele>25.131714</ele>
                <time>2006-12-17T05:07:49Z</time>
            </trkpt>
            <trkpt lon="101.068520" lat="14.376896">
                <ele>25.612305</ele>
                <time>2006-12-17T05:07:50Z</time>
            </trkpt>
            <trkpt lon="101.069033" lat="14.376833">
                <ele>24.170288</ele>
                <time>2006-12-17T05:08:05Z</time>
            </trkpt>
            <trkpt lon="101.069397" lat="14.376913">
                <ele>24.170288</ele>
                <time>2006-12-17T05:08:21Z</time>
            </trkpt>
            <trkpt lon="101.069458" lat="14.376921">
                <ele>23.689575</ele>
                <time>2006-12-17T05:08:24Z</time>
            </trkpt>
            <trkpt lon="101.069534" lat="14.376832">
                <ele>23.208984</ele>
                <time>2006-12-17T05:08:29Z</time>
            </trkpt>
            <trkpt lon="101.069432" lat="14.376448">
                <ele>24.170288</ele>
                <time>2006-12-17T05:08:42Z</time>
            </trkpt>
            <trkpt lon="101.069454" lat="14.376144">
                <ele>25.131714</ele>
                <time>2006-12-17T05:08:52Z</time>
            </trkpt>
            <trkpt lon="101.069609" lat="14.376037">
                <ele>26.092896</ele>
                <time>2006-12-17T05:08:57Z</time>
            </trkpt>
            <trkpt lon="101.069865" lat="14.375916">
                <ele>25.612305</ele>
                <time>2006-12-17T05:09:04Z</time>
            </trkpt>
            <trkpt lon="101.069994" lat="14.375865">
                <ele>25.612305</ele>
                <time>2006-12-17T05:09:07Z</time>
            </trkpt>
            <trkpt lon="101.070079" lat="14.375847">
                <ele>25.612305</ele>
                <time>2006-12-17T05:09:09Z</time>
            </trkpt>
            <trkpt lon="101.070275" lat="14.375864">
                <ele>26.092896</ele>
                <time>2006-12-17T05:09:13Z</time>
            </trkpt>
            <trkpt lon="101.070454" lat="14.375933">
                <ele>26.092896</ele>
                <time>2006-12-17T05:09:18Z</time>
            </trkpt>
            <trkpt lon="101.070643" lat="14.375782">
                <ele>27.054321</ele>
                <time>2006-12-17T05:09:24Z</time>
            </trkpt>
            <trkpt lon="101.071034" lat="14.375627">
                <ele>26.573608</ele>
                <time>2006-12-17T05:09:34Z</time>
            </trkpt>
            <trkpt lon="101.071175" lat="14.375479">
                <ele>26.092896</ele>
                <time>2006-12-17T05:09:39Z</time>
            </trkpt>
            <trkpt lon="101.071348" lat="14.374846">
                <ele>26.573608</ele>
                <time>2006-12-17T05:09:53Z</time>
            </trkpt>
            <trkpt lon="101.071507" lat="14.374666">
                <ele>26.092896</ele>
                <time>2006-12-17T05:09:58Z</time>
            </trkpt>
            <trkpt lon="101.071594" lat="14.374623">
                <ele>26.092896</ele>
                <time>2006-12-17T05:10:00Z</time>
            </trkpt>
            <trkpt lon="101.071677" lat="14.374463">
                <ele>26.092896</ele>
                <time>2006-12-17T05:10:04Z</time>
            </trkpt>
            <trkpt lon="101.071985" lat="14.374265">
                <ele>27.054321</ele>
                <time>2006-12-17T05:10:13Z</time>
            </trkpt>
            <trkpt lon="101.072026" lat="14.374249">
                <ele>27.054321</ele>
                <time>2006-12-17T05:10:14Z</time>
            </trkpt>
            <trkpt lon="101.072201" lat="14.374190">
                <ele>28.015503</ele>
                <time>2006-12-17T05:10:19Z</time>
            </trkpt>
            <trkpt lon="101.072346" lat="14.374246">
                <ele>28.015503</ele>
                <time>2006-12-17T05:10:26Z</time>
            </trkpt>
            <trkpt lon="101.072488" lat="14.373888">
                <ele>26.573608</ele>
                <time>2006-12-17T05:10:38Z</time>
            </trkpt>
            <trkpt lon="101.072709" lat="14.373419">
                <ele>25.612305</ele>
                <time>2006-12-17T05:10:50Z</time>
            </trkpt>
            <trkpt lon="101.072755" lat="14.373334">
                <ele>25.131714</ele>
                <time>2006-12-17T05:10:52Z</time>
            </trkpt>
            <trkpt lon="101.072794" lat="14.373243">
                <ele>25.131714</ele>
                <time>2006-12-17T05:10:54Z</time>
            </trkpt>
            <trkpt lon="101.072641" lat="14.372641">
                <ele>23.689575</ele>
                <time>2006-12-17T05:11:07Z</time>
            </trkpt>
            <trkpt lon="101.072587" lat="14.372502">
                <ele>23.208984</ele>
                <time>2006-12-17T05:11:10Z</time>
            </trkpt>
            <trkpt lon="101.072525" lat="14.372369">
                <ele>23.208984</ele>
                <time>2006-12-17T05:11:13Z</time>
            </trkpt>
            <trkpt lon="101.072612" lat="14.372122">
                <ele>23.689575</ele>
                <time>2006-12-17T05:11:19Z</time>
            </trkpt>
            <trkpt lon="101.072735" lat="14.372051">
                <ele>23.689575</ele>
                <time>2006-12-17T05:11:22Z</time>
            </trkpt>
            <trkpt lon="101.072835" lat="14.371867">
                <ele>23.689575</ele>
                <time>2006-12-17T05:11:27Z</time>
            </trkpt>
            <trkpt lon="101.072843" lat="14.371740">
                <ele>24.170288</ele>
                <time>2006-12-17T05:11:31Z</time>
            </trkpt>
            <trkpt lon="101.072771" lat="14.371691">
                <ele>23.208984</ele>
                <time>2006-12-17T05:11:41Z</time>
            </trkpt>
            <trkpt lon="101.072653" lat="14.371695">
                <ele>21.286377</ele>
                <time>2006-12-17T05:12:16Z</time>
            </trkpt>
            <trkpt lon="101.072613" lat="14.371541">
                <ele>20.324951</ele>
                <time>2006-12-17T05:12:21Z</time>
            </trkpt>
            <trkpt lon="101.072648" lat="14.371448">
                <ele>20.324951</ele>
                <time>2006-12-17T05:12:23Z</time>
            </trkpt>
            <trkpt lon="101.072717" lat="14.371111">
                <ele>21.766968</ele>
                <time>2006-12-17T05:12:30Z</time>
            </trkpt>
            <trkpt lon="101.072772" lat="14.370966">
                <ele>21.766968</ele>
                <time>2006-12-17T05:12:33Z</time>
            </trkpt>
            <trkpt lon="101.072881" lat="14.370788">
                <ele>21.766968</ele>
                <time>2006-12-17T05:12:37Z</time>
            </trkpt>
            <trkpt lon="101.073136" lat="14.370678">
                <ele>22.247559</ele>
                <time>2006-12-17T05:12:43Z</time>
            </trkpt>
            <trkpt lon="101.073281" lat="14.370667">
                <ele>22.247559</ele>
                <time>2006-12-17T05:12:46Z</time>
            </trkpt>
            <trkpt lon="101.073462" lat="14.370616">
                <ele>23.208984</ele>
                <time>2006-12-17T05:12:50Z</time>
            </trkpt>
            <trkpt lon="101.073714" lat="14.370438">
                <ele>22.728271</ele>
                <time>2006-12-17T05:12:57Z</time>
            </trkpt>
            <trkpt lon="101.073689" lat="14.370262">
                <ele>23.208984</ele>
                <time>2006-12-17T05:13:01Z</time>
            </trkpt>
            <trkpt lon="101.073320" lat="14.369506">
                <ele>21.766968</ele>
                <time>2006-12-17T05:13:16Z</time>
            </trkpt>
            <trkpt lon="101.073249" lat="14.369146">
                <ele>22.247559</ele>
                <time>2006-12-17T05:13:23Z</time>
            </trkpt>
            <trkpt lon="101.073362" lat="14.368875">
                <ele>22.247559</ele>
                <time>2006-12-17T05:13:29Z</time>
            </trkpt>
            <trkpt lon="101.073205" lat="14.368609">
                <ele>23.689575</ele>
                <time>2006-12-17T05:13:37Z</time>
            </trkpt>
            <trkpt lon="101.073058" lat="14.368552">
                <ele>23.689575</ele>
                <time>2006-12-17T05:13:40Z</time>
            </trkpt>
            <trkpt lon="101.072713" lat="14.368285">
                <ele>23.208984</ele>
                <time>2006-12-17T05:13:48Z</time>
            </trkpt>
            <trkpt lon="101.072517" lat="14.367938">
                <ele>23.208984</ele>
                <time>2006-12-17T05:13:56Z</time>
            </trkpt>
            <trkpt lon="101.072615" lat="14.367683">
                <ele>23.689575</ele>
                <time>2006-12-17T05:14:01Z</time>
            </trkpt>
            <trkpt lon="101.072690" lat="14.367545">
                <ele>23.689575</ele>
                <time>2006-12-17T05:14:04Z</time>
            </trkpt>
            <trkpt lon="101.072669" lat="14.367289">
                <ele>22.728271</ele>
                <time>2006-12-17T05:14:09Z</time>
            </trkpt>
            <trkpt lon="101.072551" lat="14.367175">
                <ele>21.766968</ele>
                <time>2006-12-17T05:14:12Z</time>
            </trkpt>
            <trkpt lon="101.072545" lat="14.366815">
                <ele>21.286377</ele>
                <time>2006-12-17T05:14:19Z</time>
            </trkpt>
            <trkpt lon="101.072577" lat="14.366709">
                <ele>21.286377</ele>
                <time>2006-12-17T05:14:21Z</time>
            </trkpt>
            <trkpt lon="101.072557" lat="14.366497">
                <ele>21.286377</ele>
                <time>2006-12-17T05:14:25Z</time>
            </trkpt>
            <trkpt lon="101.072500" lat="14.366177">
                <ele>20.805664</ele>
                <time>2006-12-17T05:14:31Z</time>
            </trkpt>
            <trkpt lon="101.072586" lat="14.365843">
                <ele>21.286377</ele>
                <time>2006-12-17T05:14:39Z</time>
            </trkpt>
            <trkpt lon="101.072558" lat="14.365804">
                <ele>21.286377</ele>
                <time>2006-12-17T05:14:40Z</time>
            </trkpt>
            <trkpt lon="101.072546" lat="14.365497">
                <ele>21.286377</ele>
                <time>2006-12-17T05:14:47Z</time>
            </trkpt>
            <trkpt lon="101.072614" lat="14.365422">
                <ele>21.286377</ele>
                <time>2006-12-17T05:14:49Z</time>
            </trkpt>
            <trkpt lon="101.072686" lat="14.365118">
                <ele>20.805664</ele>
                <time>2006-12-17T05:14:59Z</time>
            </trkpt>
            <trkpt lon="101.072571" lat="14.365023">
                <ele>20.805664</ele>
                <time>2006-12-17T05:15:07Z</time>
            </trkpt>
            <trkpt lon="101.072558" lat="14.364910">
                <ele>20.805664</ele>
                <time>2006-12-17T05:15:11Z</time>
            </trkpt>
            <trkpt lon="101.072591" lat="14.364848">
                <ele>21.286377</ele>
                <time>2006-12-17T05:15:20Z</time>
            </trkpt>
            <trkpt lon="101.072602" lat="14.364811">
                <ele>21.286377</ele>
                <time>2006-12-17T05:15:26Z</time>
            </trkpt>
            <trkpt lon="101.072602" lat="14.364635">
                <ele>21.766968</ele>
                <time>2006-12-17T05:15:37Z</time>
            </trkpt>
            <trkpt lon="101.072912" lat="14.364419">
                <ele>19.844360</ele>
                <time>2006-12-17T05:15:49Z</time>
            </trkpt>
            <trkpt lon="101.073091" lat="14.364286">
                <ele>19.363770</ele>
                <time>2006-12-17T05:15:55Z</time>
            </trkpt>
            <trkpt lon="101.073237" lat="14.364252">
                <ele>19.363770</ele>
                <time>2006-12-17T05:15:58Z</time>
            </trkpt>
            <trkpt lon="101.073504" lat="14.363975">
                <ele>19.844360</ele>
                <time>2006-12-17T05:16:06Z</time>
            </trkpt>
            <trkpt lon="101.073770" lat="14.363677">
                <ele>20.324951</ele>
                <time>2006-12-17T05:16:15Z</time>
            </trkpt>
            <trkpt lon="101.073917" lat="14.363685">
                <ele>20.324951</ele>
                <time>2006-12-17T05:16:18Z</time>
            </trkpt>
            <trkpt lon="101.074112" lat="14.363640">
                <ele>20.805664</ele>
                <time>2006-12-17T05:16:22Z</time>
            </trkpt>
            <trkpt lon="101.074364" lat="14.363554">
                <ele>20.805664</ele>
                <time>2006-12-17T05:16:27Z</time>
            </trkpt>
            <trkpt lon="101.074821" lat="14.363301">
                <ele>21.286377</ele>
                <time>2006-12-17T05:16:36Z</time>
            </trkpt>
            <trkpt lon="101.074889" lat="14.362953">
                <ele>19.844360</ele>
                <time>2006-12-17T05:16:43Z</time>
            </trkpt>
            <trkpt lon="101.074442" lat="14.361893">
                <ele>18.883057</ele>
                <time>2006-12-17T05:17:03Z</time>
            </trkpt>
            <trkpt lon="101.074424" lat="14.361273">
                <ele>18.883057</ele>
                <time>2006-12-17T05:17:14Z</time>
            </trkpt>
            <trkpt lon="101.074382" lat="14.360999">
                <ele>19.844360</ele>
                <time>2006-12-17T05:17:19Z</time>
            </trkpt>
            <trkpt lon="101.074321" lat="14.360849">
                <ele>19.844360</ele>
                <time>2006-12-17T05:17:22Z</time>
            </trkpt>
            <trkpt lon="101.074372" lat="14.360425">
                <ele>18.883057</ele>
                <time>2006-12-17T05:17:30Z</time>
            </trkpt>
            <trkpt lon="101.074174" lat="14.359786">
                <ele>19.363770</ele>
                <time>2006-12-17T05:17:43Z</time>
            </trkpt>
            <trkpt lon="101.074009" lat="14.359357">
                <ele>19.363770</ele>
                <time>2006-12-17T05:17:52Z</time>
            </trkpt>
            <trkpt lon="101.074180" lat="14.359113">
                <ele>18.883057</ele>
                <time>2006-12-17T05:17:58Z</time>
            </trkpt>
            <trkpt lon="101.074321" lat="14.358840">
                <ele>18.883057</ele>
                <time>2006-12-17T05:18:04Z</time>
            </trkpt>
            <trkpt lon="101.074329" lat="14.358580">
                <ele>19.363770</ele>
                <time>2006-12-17T05:18:09Z</time>
            </trkpt>
            <trkpt lon="101.074068" lat="14.358219">
                <ele>19.363770</ele>
                <time>2006-12-17T05:18:18Z</time>
            </trkpt>
            <trkpt lon="101.073905" lat="14.358014">
                <ele>19.844360</ele>
                <time>2006-12-17T05:18:23Z</time>
            </trkpt>
            <trkpt lon="101.073784" lat="14.357777">
                <ele>19.844360</ele>
                <time>2006-12-17T05:18:28Z</time>
            </trkpt>
            <trkpt lon="101.073727" lat="14.357475">
                <ele>20.324951</ele>
                <time>2006-12-17T05:18:34Z</time>
            </trkpt>
            <trkpt lon="101.073923" lat="14.357306">
                <ele>20.324951</ele>
                <time>2006-12-17T05:18:40Z</time>
            </trkpt>
            <trkpt lon="101.074294" lat="14.357164">
                <ele>19.363770</ele>
                <time>2006-12-17T05:18:48Z</time>
            </trkpt>
            <trkpt lon="101.074418" lat="14.356815">
                <ele>18.402344</ele>
                <time>2006-12-17T05:18:56Z</time>
            </trkpt>
            <trkpt lon="101.073956" lat="14.355933">
                <ele>18.402344</ele>
                <time>2006-12-17T05:19:16Z</time>
            </trkpt>
            <trkpt lon="101.073846" lat="14.355598">
                <ele>17.921753</ele>
                <time>2006-12-17T05:19:24Z</time>
            </trkpt>
            <trkpt lon="101.073692" lat="14.355421">
                <ele>16.960449</ele>
                <time>2006-12-17T05:19:29Z</time>
            </trkpt>
            <trkpt lon="101.073577" lat="14.355350">
                <ele>17.441162</ele>
                <time>2006-12-17T05:19:32Z</time>
            </trkpt>
            <trkpt lon="101.073406" lat="14.355438">
                <ele>15.999023</ele>
                <time>2006-12-17T05:19:39Z</time>
            </trkpt>
            <trkpt lon="101.073258" lat="14.355321">
                <ele>16.479736</ele>
                <time>2006-12-17T05:19:49Z</time>
            </trkpt>
            <trkpt lon="101.073240" lat="14.355288">
                <ele>17.441162</ele>
                <time>2006-12-17T05:19:55Z</time>
            </trkpt>
            <trkpt lon="101.073253" lat="14.355304">
                <ele>17.921753</ele>
                <time>2006-12-17T05:19:57Z</time>
            </trkpt>
            <trkpt lon="101.073384" lat="14.355475">
                <ele>18.402344</ele>
                <time>2006-12-17T05:20:05Z</time>
            </trkpt>
            <trkpt lon="101.073468" lat="14.355440">
                <ele>18.402344</ele>
                <time>2006-12-17T05:20:09Z</time>
            </trkpt>
            <trkpt lon="101.073521" lat="14.355375">
                <ele>18.402344</ele>
                <time>2006-12-17T05:20:13Z</time>
            </trkpt>
            <trkpt lon="101.073480" lat="14.355220">
                <ele>16.960449</ele>
                <time>2006-12-17T05:20:19Z</time>
            </trkpt>
            <trkpt lon="101.073329" lat="14.354859">
                <ele>15.999023</ele>
                <time>2006-12-17T05:20:30Z</time>
            </trkpt>
            <trkpt lon="101.073481" lat="14.354584">
                <ele>16.479736</ele>
                <time>2006-12-17T05:20:39Z</time>
            </trkpt>
            <trkpt lon="101.073230" lat="14.354452">
                <ele>15.999023</ele>
                <time>2006-12-17T05:20:47Z</time>
            </trkpt>
            <trkpt lon="101.073067" lat="14.354486">
                <ele>16.960449</ele>
                <time>2006-12-17T05:20:51Z</time>
            </trkpt>
            <trkpt lon="101.072800" lat="14.354489">
                <ele>17.441162</ele>
                <time>2006-12-17T05:20:58Z</time>
            </trkpt>
            <trkpt lon="101.072702" lat="14.354540">
                <ele>17.441162</ele>
                <time>2006-12-17T05:21:01Z</time>
            </trkpt>
            <trkpt lon="101.072539" lat="14.354430">
                <ele>17.441162</ele>
                <time>2006-12-17T05:21:07Z</time>
            </trkpt>
            <trkpt lon="101.072490" lat="14.354314">
                <ele>16.960449</ele>
                <time>2006-12-17T05:21:10Z</time>
            </trkpt>
            <trkpt lon="101.072393" lat="14.354172">
                <ele>16.960449</ele>
                <time>2006-12-17T05:21:14Z</time>
            </trkpt>
            <trkpt lon="101.072164" lat="14.354062">
                <ele>17.441162</ele>
                <time>2006-12-17T05:21:20Z</time>
            </trkpt>
            <trkpt lon="101.071895" lat="14.354096">
                <ele>17.921753</ele>
                <time>2006-12-17T05:21:31Z</time>
            </trkpt>
            <trkpt lon="101.071642" lat="14.354162">
                <ele>17.441162</ele>
                <time>2006-12-17T05:21:42Z</time>
            </trkpt>
            <trkpt lon="101.071523" lat="14.354172">
                <ele>17.441162</ele>
                <time>2006-12-17T05:21:47Z</time>
            </trkpt>
            <trkpt lon="101.071473" lat="14.354160">
                <ele>17.441162</ele>
                <time>2006-12-17T05:21:49Z</time>
            </trkpt>
            <trkpt lon="101.071402" lat="14.353804">
                <ele>18.883057</ele>
                <time>2006-12-17T05:22:03Z</time>
            </trkpt>
            <trkpt lon="101.071242" lat="14.353445">
                <ele>18.883057</ele>
                <time>2006-12-17T05:22:18Z</time>
            </trkpt>
            <trkpt lon="101.071173" lat="14.353112">
                <ele>17.921753</ele>
                <time>2006-12-17T05:22:29Z</time>
            </trkpt>
            <trkpt lon="101.070995" lat="14.352768">
                <ele>18.883057</ele>
                <time>2006-12-17T05:22:43Z</time>
            </trkpt>
            <trkpt lon="101.070835" lat="14.352215">
                <ele>19.363770</ele>
                <time>2006-12-17T05:23:01Z</time>
            </trkpt>
            <trkpt lon="101.070571" lat="14.351796">
                <ele>18.402344</ele>
                <time>2006-12-17T05:23:15Z</time>
            </trkpt>
            <trkpt lon="101.070282" lat="14.351409">
                <ele>18.402344</ele>
                <time>2006-12-17T05:23:29Z</time>
            </trkpt>
            <trkpt lon="101.070069" lat="14.351085">
                <ele>16.960449</ele>
                <time>2006-12-17T05:23:43Z</time>
            </trkpt>
            <trkpt lon="101.069774" lat="14.350605">
                <ele>18.883057</ele>
                <time>2006-12-17T05:23:58Z</time>
            </trkpt>
            <trkpt lon="101.069807" lat="14.350487">
                <ele>19.363770</ele>
                <time>2006-12-17T05:24:01Z</time>
            </trkpt>
            <trkpt lon="101.069804" lat="14.350174">
                <ele>19.363770</ele>
                <time>2006-12-17T05:24:08Z</time>
            </trkpt>
            <trkpt lon="101.069720" lat="14.350012">
                <ele>19.363770</ele>
                <time>2006-12-17T05:24:12Z</time>
            </trkpt>
            <trkpt lon="101.069651" lat="14.349949">
                <ele>19.363770</ele>
                <time>2006-12-17T05:24:14Z</time>
            </trkpt>
            <trkpt lon="101.069592" lat="14.349878">
                <ele>18.883057</ele>
                <time>2006-12-17T05:24:16Z</time>
            </trkpt>
            <trkpt lon="101.069553" lat="14.349694">
                <ele>19.363770</ele>
                <time>2006-12-17T05:24:20Z</time>
            </trkpt>
            <trkpt lon="101.070214" lat="14.348993">
                <ele>19.844360</ele>
                <time>2006-12-17T05:24:39Z</time>
            </trkpt>
            <trkpt lon="101.070124" lat="14.348801">
                <ele>19.363770</ele>
                <time>2006-12-17T05:24:46Z</time>
            </trkpt>
            <trkpt lon="101.069747" lat="14.348733">
                <ele>18.883057</ele>
                <time>2006-12-17T05:24:56Z</time>
            </trkpt>
            <trkpt lon="101.069190" lat="14.348875">
                <ele>18.883057</ele>
                <time>2006-12-17T05:25:11Z</time>
            </trkpt>
            <trkpt lon="101.069080" lat="14.348928">
                <ele>18.402344</ele>
                <time>2006-12-17T05:25:50Z</time>
            </trkpt>
            <trkpt lon="101.068959" lat="14.348952">
                <ele>18.883057</ele>
                <time>2006-12-17T05:25:54Z</time>
            </trkpt>
            <trkpt lon="101.068641" lat="14.349156">
                <ele>17.441162</ele>
                <time>2006-12-17T05:26:02Z</time>
            </trkpt>
            <trkpt lon="101.068405" lat="14.349230">
                <ele>16.960449</ele>
                <time>2006-12-17T05:26:10Z</time>
            </trkpt>
            <trkpt lon="101.068310" lat="14.349114">
                <ele>16.479736</ele>
                <time>2006-12-17T05:26:15Z</time>
            </trkpt>
            <trkpt lon="101.068200" lat="14.349087">
                <ele>16.479736</ele>
                <time>2006-12-17T05:26:18Z</time>
            </trkpt>
            <trkpt lon="101.067990" lat="14.348724">
                <ele>13.595825</ele>
                <time>2006-12-17T05:26:28Z</time>
            </trkpt>
            <trkpt lon="101.067827" lat="14.348211">
                <ele>15.999023</ele>
                <time>2006-12-17T05:26:42Z</time>
            </trkpt>
            <trkpt lon="101.067789" lat="14.348160">
                <ele>16.479736</ele>
                <time>2006-12-17T05:26:44Z</time>
            </trkpt>
            <trkpt lon="101.067773" lat="14.348034">
                <ele>16.479736</ele>
                <time>2006-12-17T05:26:48Z</time>
            </trkpt>
            <trkpt lon="101.067673" lat="14.347610">
                <ele>18.402344</ele>
                <time>2006-12-17T05:26:59Z</time>
            </trkpt>
            <trkpt lon="101.067709" lat="14.347241">
                <ele>16.960449</ele>
                <time>2006-12-17T05:27:12Z</time>
            </trkpt>
            <trkpt lon="101.067912" lat="14.347182">
                <ele>15.999023</ele>
                <time>2006-12-17T05:27:20Z</time>
            </trkpt>
            <trkpt lon="101.068018" lat="14.347109">
                <ele>16.479736</ele>
                <time>2006-12-17T05:27:24Z</time>
            </trkpt>
            <trkpt lon="101.068138" lat="14.346960">
                <ele>16.479736</ele>
                <time>2006-12-17T05:27:30Z</time>
            </trkpt>
            <trkpt lon="101.068215" lat="14.346811">
                <ele>15.999023</ele>
                <time>2006-12-17T05:27:34Z</time>
            </trkpt>
            <trkpt lon="101.068448" lat="14.346705">
                <ele>13.595825</ele>
                <time>2006-12-17T05:27:44Z</time>
            </trkpt>
            <trkpt lon="101.068789" lat="14.346674">
                <ele>13.115112</ele>
                <time>2006-12-17T05:27:54Z</time>
            </trkpt>
            <trkpt lon="101.068925" lat="14.346603">
                <ele>13.595825</ele>
                <time>2006-12-17T05:27:59Z</time>
            </trkpt>
            <trkpt lon="101.068899" lat="14.346485">
                <ele>14.557007</ele>
                <time>2006-12-17T05:28:03Z</time>
            </trkpt>
            <trkpt lon="101.068875" lat="14.346310">
                <ele>15.037720</ele>
                <time>2006-12-17T05:28:08Z</time>
            </trkpt>
            <trkpt lon="101.069018" lat="14.346187">
                <ele>15.518433</ele>
                <time>2006-12-17T05:28:13Z</time>
            </trkpt>
            <trkpt lon="101.069064" lat="14.345980">
                <ele>15.518433</ele>
                <time>2006-12-17T05:28:18Z</time>
            </trkpt>
            <trkpt lon="101.068957" lat="14.345119">
                <ele>15.518433</ele>
                <time>2006-12-17T05:28:38Z</time>
            </trkpt>
            <trkpt lon="101.068826" lat="14.344144">
                <ele>13.595825</ele>
                <time>2006-12-17T05:28:59Z</time>
            </trkpt>
            <trkpt lon="101.068781" lat="14.343908">
                <ele>14.557007</ele>
                <time>2006-12-17T05:29:06Z</time>
            </trkpt>
            <trkpt lon="101.068699" lat="14.343893">
                <ele>14.557007</ele>
                <time>2006-12-17T05:29:10Z</time>
            </trkpt>
            <trkpt lon="101.068080" lat="14.344120">
                <ele>12.634399</ele>
                <time>2006-12-17T05:29:27Z</time>
            </trkpt>
            <trkpt lon="101.067327" lat="14.344385">
                <ele>13.115112</ele>
                <time>2006-12-17T05:29:44Z</time>
            </trkpt>
            <trkpt lon="101.066574" lat="14.344657">
                <ele>11.192505</ele>
                <time>2006-12-17T05:30:01Z</time>
            </trkpt>
            <trkpt lon="101.065904" lat="14.344869">
                <ele>10.711792</ele>
                <time>2006-12-17T05:30:16Z</time>
            </trkpt>
            <trkpt lon="101.065769" lat="14.344778">
                <ele>10.711792</ele>
                <time>2006-12-17T05:30:21Z</time>
            </trkpt>
            <trkpt lon="101.065718" lat="14.343999">
                <ele>12.634399</ele>
                <time>2006-12-17T05:30:36Z</time>
            </trkpt>
            <trkpt lon="101.065427" lat="14.342708">
                <ele>13.115112</ele>
                <time>2006-12-17T05:31:00Z</time>
            </trkpt>
            <trkpt lon="101.065233" lat="14.341684">
                <ele>13.595825</ele>
                <time>2006-12-17T05:31:20Z</time>
            </trkpt>
            <trkpt lon="101.065166" lat="14.341431">
                <ele>12.634399</ele>
                <time>2006-12-17T05:31:25Z</time>
            </trkpt>
            <trkpt lon="101.064829" lat="14.341289">
                <ele>11.673218</ele>
                <time>2006-12-17T05:31:33Z</time>
            </trkpt>
            <trkpt lon="101.064584" lat="14.341338">
                <ele>10.711792</ele>
                <time>2006-12-17T05:31:38Z</time>
            </trkpt>
            <trkpt lon="101.064377" lat="14.341226">
                <ele>9.750610</ele>
                <time>2006-12-17T05:31:43Z</time>
            </trkpt>
            <trkpt lon="101.063875" lat="14.340258">
                <ele>10.231201</ele>
                <time>2006-12-17T05:32:04Z</time>
            </trkpt>
            <trkpt lon="101.063589" lat="14.339857">
                <ele>10.711792</ele>
                <time>2006-12-17T05:32:13Z</time>
            </trkpt>
            <trkpt lon="101.063447" lat="14.339792">
                <ele>11.192505</ele>
                <time>2006-12-17T05:32:16Z</time>
            </trkpt>
            <trkpt lon="101.063154" lat="14.339353">
                <ele>12.634399</ele>
                <time>2006-12-17T05:32:26Z</time>
            </trkpt>
            <trkpt lon="101.062517" lat="14.338169">
                <ele>14.557007</ele>
                <time>2006-12-17T05:32:50Z</time>
            </trkpt>
            <trkpt lon="101.061793" lat="14.337256">
                <ele>16.479736</ele>
                <time>2006-12-17T05:33:10Z</time>
            </trkpt>
            <trkpt lon="101.061158" lat="14.336460">
                <ele>15.999023</ele>
                <time>2006-12-17T05:33:28Z</time>
            </trkpt>
            <trkpt lon="101.061266" lat="14.336262">
                <ele>15.037720</ele>
                <time>2006-12-17T05:33:33Z</time>
            </trkpt>
            <trkpt lon="101.061751" lat="14.335999">
                <ele>13.115112</ele>
                <time>2006-12-17T05:33:43Z</time>
            </trkpt>
            <trkpt lon="101.061819" lat="14.335668">
                <ele>12.634399</ele>
                <time>2006-12-17T05:33:50Z</time>
            </trkpt>
            <trkpt lon="101.061328" lat="14.334748">
                <ele>13.595825</ele>
                <time>2006-12-17T05:34:10Z</time>
            </trkpt>
            <trkpt lon="101.060815" lat="14.333888">
                <ele>13.595825</ele>
                <time>2006-12-17T05:34:31Z</time>
            </trkpt>
            <trkpt lon="101.060797" lat="14.333848">
                <ele>13.595825</ele>
                <time>2006-12-17T05:34:32Z</time>
            </trkpt>
            <trkpt lon="101.060881" lat="14.333725">
                <ele>13.115112</ele>
                <time>2006-12-17T05:34:36Z</time>
            </trkpt>
            <trkpt lon="101.061863" lat="14.333314">
                <ele>10.711792</ele>
                <time>2006-12-17T05:34:58Z</time>
            </trkpt>
            <trkpt lon="101.062970" lat="14.332835">
                <ele>9.750610</ele>
                <time>2006-12-17T05:35:20Z</time>
            </trkpt>
            <trkpt lon="101.063960" lat="14.332257">
                <ele>10.231201</ele>
                <time>2006-12-17T05:35:40Z</time>
            </trkpt>
            <trkpt lon="101.064033" lat="14.332056">
                <ele>10.711792</ele>
                <time>2006-12-17T05:35:44Z</time>
            </trkpt>
            <trkpt lon="101.064171" lat="14.331844">
                <ele>10.711792</ele>
                <time>2006-12-17T05:35:49Z</time>
            </trkpt>
            <trkpt lon="101.065091" lat="14.331246">
                <ele>11.192505</ele>
                <time>2006-12-17T05:36:09Z</time>
            </trkpt>
            <trkpt lon="101.066113" lat="14.330826">
                <ele>12.634399</ele>
                <time>2006-12-17T05:36:30Z</time>
            </trkpt>
            <trkpt lon="101.067022" lat="14.330425">
                <ele>12.153809</ele>
                <time>2006-12-17T05:36:49Z</time>
            </trkpt>
            <trkpt lon="101.068205" lat="14.329924">
                <ele>11.192505</ele>
                <time>2006-12-17T05:37:12Z</time>
            </trkpt>
            <trkpt lon="101.069372" lat="14.329562">
                <ele>12.634399</ele>
                <time>2006-12-17T05:37:34Z</time>
            </trkpt>
            <trkpt lon="101.070039" lat="14.329359">
                <ele>13.115112</ele>
                <time>2006-12-17T05:37:50Z</time>
            </trkpt>
            <trkpt lon="101.070510" lat="14.329210">
                <ele>13.595825</ele>
                <time>2006-12-17T05:38:02Z</time>
            </trkpt>
            <trkpt lon="101.071662" lat="14.328911">
                <ele>14.557007</ele>
                <time>2006-12-17T05:38:24Z</time>
            </trkpt>
            <trkpt lon="101.072889" lat="14.328851">
                <ele>15.037720</ele>
                <time>2006-12-17T05:38:45Z</time>
            </trkpt>
            <trkpt lon="101.073086" lat="14.328845">
                <ele>15.037720</ele>
                <time>2006-12-17T05:38:49Z</time>
            </trkpt>
            <trkpt lon="101.073235" lat="14.328637">
                <ele>15.037720</ele>
                <time>2006-12-17T05:38:57Z</time>
            </trkpt>
            <trkpt lon="101.072943" lat="14.327758">
                <ele>14.557007</ele>
                <time>2006-12-17T05:39:15Z</time>
            </trkpt>
            <trkpt lon="101.072580" lat="14.326629">
                <ele>14.076416</ele>
                <time>2006-12-17T05:39:35Z</time>
            </trkpt>
            <trkpt lon="101.072231" lat="14.325538">
                <ele>13.595825</ele>
                <time>2006-12-17T05:39:55Z</time>
            </trkpt>
            <trkpt lon="101.072366" lat="14.325356">
                <ele>14.076416</ele>
                <time>2006-12-17T05:40:00Z</time>
            </trkpt>
            <trkpt lon="101.073516" lat="14.324911">
                <ele>15.518433</ele>
                <time>2006-12-17T05:40:23Z</time>
            </trkpt>
            <trkpt lon="101.074087" lat="14.324399">
                <ele>15.518433</ele>
                <time>2006-12-17T05:40:38Z</time>
            </trkpt>
            <trkpt lon="101.074454" lat="14.324202">
                <ele>16.960449</ele>
                <time>2006-12-17T05:40:46Z</time>
            </trkpt>
            <trkpt lon="101.075464" lat="14.324126">
                <ele>17.921753</ele>
                <time>2006-12-17T05:41:05Z</time>
            </trkpt>
            <trkpt lon="101.076554" lat="14.324267">
                <ele>16.479736</ele>
                <time>2006-12-17T05:41:25Z</time>
            </trkpt>
            <trkpt lon="101.077523" lat="14.324219">
                <ele>16.479736</ele>
                <time>2006-12-17T05:41:42Z</time>
            </trkpt>
            <trkpt lon="101.078865" lat="14.324063">
                <ele>17.921753</ele>
                <time>2006-12-17T05:42:05Z</time>
            </trkpt>
            <trkpt lon="101.080258" lat="14.323899">
                <ele>17.921753</ele>
                <time>2006-12-17T05:42:27Z</time>
            </trkpt>
            <trkpt lon="101.081761" lat="14.323537">
                <ele>16.479736</ele>
                <time>2006-12-17T05:42:53Z</time>
            </trkpt>
            <trkpt lon="101.081916" lat="14.323483">
                <ele>16.479736</ele>
                <time>2006-12-17T05:42:56Z</time>
            </trkpt>
            <trkpt lon="101.082010" lat="14.323242">
                <ele>15.999023</ele>
                <time>2006-12-17T05:43:02Z</time>
            </trkpt>
            <trkpt lon="101.081691" lat="14.322282">
                <ele>14.557007</ele>
                <time>2006-12-17T05:43:22Z</time>
            </trkpt>
            <trkpt lon="101.081554" lat="14.321756">
                <ele>13.595825</ele>
                <time>2006-12-17T05:43:33Z</time>
            </trkpt>
            <trkpt lon="101.081561" lat="14.321608">
                <ele>13.595825</ele>
                <time>2006-12-17T05:43:36Z</time>
            </trkpt>
            <trkpt lon="101.081710" lat="14.321115">
                <ele>14.076416</ele>
                <time>2006-12-17T05:43:46Z</time>
            </trkpt>
            <trkpt lon="101.081680" lat="14.320300">
                <ele>14.076416</ele>
                <time>2006-12-17T05:44:02Z</time>
            </trkpt>
            <trkpt lon="101.081583" lat="14.319102">
                <ele>13.115112</ele>
                <time>2006-12-17T05:44:26Z</time>
            </trkpt>
            <trkpt lon="101.081505" lat="14.318074">
                <ele>13.115112</ele>
                <time>2006-12-17T05:44:47Z</time>
            </trkpt>
            <trkpt lon="101.081459" lat="14.316942">
                <ele>12.153809</ele>
                <time>2006-12-17T05:45:08Z</time>
            </trkpt>
            <trkpt lon="101.081312" lat="14.315642">
                <ele>12.153809</ele>
                <time>2006-12-17T05:45:31Z</time>
            </trkpt>
            <trkpt lon="101.081124" lat="14.314489">
                <ele>11.192505</ele>
                <time>2006-12-17T05:45:52Z</time>
            </trkpt>
            <trkpt lon="101.081037" lat="14.313364">
                <ele>11.192505</ele>
                <time>2006-12-17T05:46:13Z</time>
            </trkpt>
            <trkpt lon="101.081012" lat="14.312550">
                <ele>11.673218</ele>
                <time>2006-12-17T05:46:31Z</time>
            </trkpt>
            <trkpt lon="101.080873" lat="14.311712">
                <ele>11.673218</ele>
                <time>2006-12-17T05:46:50Z</time>
            </trkpt>
            <trkpt lon="101.080561" lat="14.311034">
                <ele>12.634399</ele>
                <time>2006-12-17T05:47:08Z</time>
            </trkpt>
            <trkpt lon="101.080280" lat="14.310099">
                <ele>11.192505</ele>
                <time>2006-12-17T05:47:29Z</time>
            </trkpt>
            <trkpt lon="101.080129" lat="14.309177">
                <ele>11.192505</ele>
                <time>2006-12-17T05:47:49Z</time>
            </trkpt>
            <trkpt lon="101.080035" lat="14.308517">
                <ele>12.634399</ele>
                <time>2006-12-17T05:48:06Z</time>
            </trkpt>
            <trkpt lon="101.080001" lat="14.308215">
                <ele>12.634399</ele>
                <time>2006-12-17T05:48:18Z</time>
            </trkpt>
            <trkpt lon="101.079883" lat="14.307370">
                <ele>11.673218</ele>
                <time>2006-12-17T05:48:36Z</time>
            </trkpt>
            <trkpt lon="101.079709" lat="14.306191">
                <ele>11.192505</ele>
                <time>2006-12-17T05:48:57Z</time>
            </trkpt>
            <trkpt lon="101.079506" lat="14.304793">
                <ele>11.192505</ele>
                <time>2006-12-17T05:49:22Z</time>
            </trkpt>
            <trkpt lon="101.079340" lat="14.303272">
                <ele>11.673218</ele>
                <time>2006-12-17T05:49:49Z</time>
            </trkpt>
            <trkpt lon="101.079195" lat="14.301735">
                <ele>11.673218</ele>
                <time>2006-12-17T05:50:15Z</time>
            </trkpt>
            <trkpt lon="101.079107" lat="14.300355">
                <ele>11.673218</ele>
                <time>2006-12-17T05:50:38Z</time>
            </trkpt>
            <trkpt lon="101.079050" lat="14.299289">
                <ele>10.711792</ele>
                <time>2006-12-17T05:50:56Z</time>
            </trkpt>
            <trkpt lon="101.078985" lat="14.297987">
                <ele>11.192505</ele>
                <time>2006-12-17T05:51:18Z</time>
            </trkpt>
            <trkpt lon="101.078978" lat="14.297878">
                <ele>11.673218</ele>
                <time>2006-12-17T05:51:20Z</time>
            </trkpt>
            <trkpt lon="101.078932" lat="14.297747">
                <ele>11.673218</ele>
                <time>2006-12-17T05:51:23Z</time>
            </trkpt>
            <trkpt lon="101.078925" lat="14.297549">
                <ele>11.673218</ele>
                <time>2006-12-17T05:51:27Z</time>
            </trkpt>
            <trkpt lon="101.078790" lat="14.296586">
                <ele>11.673218</ele>
                <time>2006-12-17T05:51:43Z</time>
            </trkpt>
            <trkpt lon="101.078575" lat="14.295211">
                <ele>11.673218</ele>
                <time>2006-12-17T05:52:06Z</time>
            </trkpt>
            <trkpt lon="101.078405" lat="14.294239">
                <ele>11.192505</ele>
                <time>2006-12-17T05:52:23Z</time>
            </trkpt>
            <trkpt lon="101.078253" lat="14.294154">
                <ele>11.192505</ele>
                <time>2006-12-17T05:52:27Z</time>
            </trkpt>
            <trkpt lon="101.077167" lat="14.294147">
                <ele>11.673218</ele>
                <time>2006-12-17T05:52:46Z</time>
            </trkpt>
            <trkpt lon="101.075798" lat="14.294187">
                <ele>10.711792</ele>
                <time>2006-12-17T05:53:09Z</time>
            </trkpt>
            <trkpt lon="101.075625" lat="14.294198">
                <ele>10.231201</ele>
                <time>2006-12-17T05:53:12Z</time>
            </trkpt>
            <trkpt lon="101.075451" lat="14.294009">
                <ele>8.789185</ele>
                <time>2006-12-17T05:53:17Z</time>
            </trkpt>
            <trkpt lon="101.075339" lat="14.293565">
                <ele>9.750610</ele>
                <time>2006-12-17T05:53:25Z</time>
            </trkpt>
            <trkpt lon="101.075276" lat="14.293487">
                <ele>8.789185</ele>
                <time>2006-12-17T05:53:28Z</time>
            </trkpt>
            <trkpt lon="101.074918" lat="14.293533">
                <ele>8.789185</ele>
                <time>2006-12-17T05:53:37Z</time>
            </trkpt>
            <trkpt lon="101.074602" lat="14.293553">
                <ele>12.153809</ele>
                <time>2006-12-17T05:53:45Z</time>
            </trkpt>
            <trkpt lon="101.074856" lat="14.293580">
                <ele>13.115112</ele>
                <time>2006-12-17T05:53:57Z</time>
            </trkpt>
            <trkpt lon="101.074891" lat="14.293674">
                <ele>12.153809</ele>
                <time>2006-12-17T05:54:06Z</time>
            </trkpt>
            <trkpt lon="101.074905" lat="14.293667">
                <ele>12.634399</ele>
                <time>2006-12-17T05:54:46Z</time>
            </trkpt>
        </trkseg>
    </trk>
</gpx>